<?xml version="1.0" encoding="UTF-8" standalone="no" ?>
<gpx xmlns="http://www.topografix.com/GPX/1/1" xmlns:xsi="http://www.w3.org/2001/XMLSchema-instance" xsi:schemaLocation="http://www.topografix.com/GPX/1/1 http://www.topografix.com/GPX/1/1/gpx.xsd" version="1.1" creator="VisuGPX - https://www.visugpx.com">
  <metadata>
    <name>Montredon-Labessionné 6 tronqué</name>
    <desc><![CDATA[[b]Ballade dans le Sidobre[/b]]]></desc>
  </metadata>
  <wpt lat="43.39966" lon="2.20178">
    <ele>717.023438</ele>
    <name><![CDATA[002]]></name>
    <desc><![CDATA[11-AOU-10 16:15:17]]></desc>
    <cmt><![CDATA[11-AOU-10 16:15:17]]></cmt>
  </wpt>
  <wpt lat="43.39343" lon="2.20603">
    <ele>736.970703</ele>
    <name><![CDATA[003]]></name>
    <desc><![CDATA[11-AOU-10 17:27:43]]></desc>
    <cmt><![CDATA[11-AOU-10 17:27:43]]></cmt>
  </wpt>
  <wpt lat="43.3923" lon="2.21041">
    <ele>748.987061</ele>
    <name><![CDATA[004]]></name>
    <desc><![CDATA[11-AOU-10 17:31:21]]></desc>
    <cmt><![CDATA[11-AOU-10 17:31:21]]></cmt>
  </wpt>
  <wpt lat="43.40158" lon="2.22549">
    <ele>266.889648</ele>
    <name><![CDATA[005]]></name>
    <desc><![CDATA[12-AOU-10 8:38:06]]></desc>
    <cmt><![CDATA[12-AOU-10 8:38:06]]></cmt>
  </wpt>
  <wpt lat="43.40158" lon="2.22549">
    <ele>267.130005</ele>
    <name><![CDATA[006]]></name>
    <desc><![CDATA[12-AOU-10 8:39:57]]></desc>
    <cmt><![CDATA[12-AOU-10 8:39:57]]></cmt>
  </wpt>
  <trk>
    <name><![CDATA[ACTIVE LOG]]></name>
    <trkseg>
      <trkpt lat="43.7206" lon="2.32569">
        <ele>534.630371</ele>
        <time>2011-02-23T14:04:55Z</time>
      </trkpt>
      <trkpt lat="43.7206" lon="2.32569">
        <ele>534.630371</ele>
        <time>2011-02-23T14:04:56Z</time>
      </trkpt>
      <trkpt lat="43.7206" lon="2.32569">
        <ele>534.630371</ele>
        <time>2011-02-23T14:04:57Z</time>
      </trkpt>
      <trkpt lat="43.7206" lon="2.32571">
        <ele>534.149658</ele>
        <time>2011-02-23T14:05:17Z</time>
      </trkpt>
      <trkpt lat="43.72061" lon="2.32571">
        <ele>533.188354</ele>
        <time>2011-02-23T14:05:31Z</time>
      </trkpt>
      <trkpt lat="43.72058" lon="2.32585">
        <ele>534.630371</ele>
        <time>2011-02-23T14:06:20Z</time>
      </trkpt>
      <trkpt lat="43.72056" lon="2.32586">
        <ele>534.630371</ele>
        <time>2011-02-23T14:07:16Z</time>
      </trkpt>
      <trkpt lat="43.72056" lon="2.32584">
        <ele>532.707764</ele>
        <time>2011-02-23T14:09:12Z</time>
      </trkpt>
      <trkpt lat="43.72056" lon="2.32584">
        <ele>533.188354</ele>
        <time>2011-02-23T14:09:14Z</time>
      </trkpt>
      <trkpt lat="43.72056" lon="2.32592">
        <ele>533.188354</ele>
        <time>2011-02-23T14:09:25Z</time>
      </trkpt>
      <trkpt lat="43.72049" lon="2.32581">
        <ele>533.188354</ele>
        <time>2011-02-23T14:11:01Z</time>
      </trkpt>
      <trkpt lat="43.72053" lon="2.32584">
        <ele>533.188354</ele>
        <time>2011-02-23T14:11:21Z</time>
      </trkpt>
      <trkpt lat="43.72058" lon="2.32588">
        <ele>533.668945</ele>
        <time>2011-02-23T14:11:49Z</time>
      </trkpt>
      <trkpt lat="43.72029" lon="2.32608">
        <ele>532.707764</ele>
        <time>2011-02-23T14:12:02Z</time>
      </trkpt>
      <trkpt lat="43.72017" lon="2.32617">
        <ele>532.227051</ele>
        <time>2011-02-23T14:12:07Z</time>
      </trkpt>
      <trkpt lat="43.72015" lon="2.32633">
        <ele>532.227051</ele>
        <time>2011-02-23T14:12:11Z</time>
      </trkpt>
      <trkpt lat="43.72011" lon="2.32704">
        <ele>532.227051</ele>
        <time>2011-02-23T14:12:28Z</time>
      </trkpt>
      <trkpt lat="43.71998" lon="2.32823">
        <ele>531.746338</ele>
        <time>2011-02-23T14:12:50Z</time>
      </trkpt>
      <trkpt lat="43.71995" lon="2.32872">
        <ele>531.746338</ele>
        <time>2011-02-23T14:12:59Z</time>
      </trkpt>
      <trkpt lat="43.7199" lon="2.33024">
        <ele>533.668945</ele>
        <time>2011-02-23T14:13:24Z</time>
      </trkpt>
      <trkpt lat="43.7199" lon="2.33163">
        <ele>535.110962</ele>
        <time>2011-02-23T14:13:47Z</time>
      </trkpt>
      <trkpt lat="43.71988" lon="2.33275">
        <ele>538.475708</ele>
        <time>2011-02-23T14:14:06Z</time>
      </trkpt>
      <trkpt lat="43.71988" lon="2.33281">
        <ele>538.475708</ele>
        <time>2011-02-23T14:14:07Z</time>
      </trkpt>
      <trkpt lat="43.71987" lon="2.33417">
        <ele>540.398315</ele>
        <time>2011-02-23T14:14:31Z</time>
      </trkpt>
      <trkpt lat="43.71986" lon="2.33543">
        <ele>542.320923</ele>
        <time>2011-02-23T14:14:53Z</time>
      </trkpt>
      <trkpt lat="43.71981" lon="2.33689">
        <ele>543.762817</ele>
        <time>2011-02-23T14:15:19Z</time>
      </trkpt>
      <trkpt lat="43.71959" lon="2.33808">
        <ele>544.724243</ele>
        <time>2011-02-23T14:15:41Z</time>
      </trkpt>
      <trkpt lat="43.7193" lon="2.33956">
        <ele>547.127441</ele>
        <time>2011-02-23T14:16:09Z</time>
      </trkpt>
      <trkpt lat="43.71895" lon="2.3406">
        <ele>549.050049</ele>
        <time>2011-02-23T14:16:30Z</time>
      </trkpt>
      <trkpt lat="43.71864" lon="2.34137">
        <ele>551.453369</ele>
        <time>2011-02-23T14:16:45Z</time>
      </trkpt>
      <trkpt lat="43.71816" lon="2.34266">
        <ele>553.375977</ele>
        <time>2011-02-23T14:17:10Z</time>
      </trkpt>
      <trkpt lat="43.71771" lon="2.34378">
        <ele>555.779297</ele>
        <time>2011-02-23T14:17:33Z</time>
      </trkpt>
      <trkpt lat="43.71765" lon="2.34398">
        <ele>556.26001</ele>
        <time>2011-02-23T14:17:37Z</time>
      </trkpt>
      <trkpt lat="43.71743" lon="2.34499">
        <ele>558.66333</ele>
        <time>2011-02-23T14:17:56Z</time>
      </trkpt>
      <trkpt lat="43.71736" lon="2.34626">
        <ele>560.585938</ele>
        <time>2011-02-23T14:18:18Z</time>
      </trkpt>
      <trkpt lat="43.71733" lon="2.34679">
        <ele>562.028076</ele>
        <time>2011-02-23T14:18:27Z</time>
      </trkpt>
      <trkpt lat="43.71742" lon="2.3475">
        <ele>562.508545</ele>
        <time>2011-02-23T14:18:40Z</time>
      </trkpt>
      <trkpt lat="43.71745" lon="2.34777">
        <ele>562.508545</ele>
        <time>2011-02-23T14:18:45Z</time>
      </trkpt>
      <trkpt lat="43.71743" lon="2.34905">
        <ele>559.624756</ele>
        <time>2011-02-23T14:19:04Z</time>
      </trkpt>
      <trkpt lat="43.71727" lon="2.34969">
        <ele>556.740723</ele>
        <time>2011-02-23T14:19:12Z</time>
      </trkpt>
      <trkpt lat="43.71693" lon="2.35112">
        <ele>553.375977</ele>
        <time>2011-02-23T14:19:26Z</time>
      </trkpt>
      <trkpt lat="43.71639" lon="2.35315">
        <ele>551.453369</ele>
        <time>2011-02-23T14:19:48Z</time>
      </trkpt>
      <trkpt lat="43.71627" lon="2.35371">
        <ele>549.530762</ele>
        <time>2011-02-23T14:19:54Z</time>
      </trkpt>
      <trkpt lat="43.71625" lon="2.35381">
        <ele>549.530762</ele>
        <time>2011-02-23T14:19:55Z</time>
      </trkpt>
      <trkpt lat="43.71592" lon="2.3551">
        <ele>546.16626</ele>
        <time>2011-02-23T14:20:08Z</time>
      </trkpt>
      <trkpt lat="43.71591" lon="2.35539">
        <ele>546.646851</ele>
        <time>2011-02-23T14:20:12Z</time>
      </trkpt>
      <trkpt lat="43.716" lon="2.35581">
        <ele>548.088867</ele>
        <time>2011-02-23T14:20:21Z</time>
      </trkpt>
      <trkpt lat="43.7163" lon="2.35639">
        <ele>551.453369</ele>
        <time>2011-02-23T14:20:36Z</time>
      </trkpt>
      <trkpt lat="43.71631" lon="2.35642">
        <ele>551.453369</ele>
        <time>2011-02-23T14:20:37Z</time>
      </trkpt>
      <trkpt lat="43.71646" lon="2.35683">
        <ele>555.298584</ele>
        <time>2011-02-23T14:20:49Z</time>
      </trkpt>
      <trkpt lat="43.71678" lon="2.35756">
        <ele>558.66333</ele>
        <time>2011-02-23T14:21:12Z</time>
      </trkpt>
      <trkpt lat="43.71717" lon="2.35814">
        <ele>560.585938</ele>
        <time>2011-02-23T14:21:33Z</time>
      </trkpt>
      <trkpt lat="43.71722" lon="2.3582">
        <ele>561.547363</ele>
        <time>2011-02-23T14:21:37Z</time>
      </trkpt>
      <trkpt lat="43.71724" lon="2.35822">
        <ele>562.028076</ele>
        <time>2011-02-23T14:21:43Z</time>
      </trkpt>
      <trkpt lat="43.71664" lon="2.35768">
        <ele>566.834473</ele>
        <time>2011-02-23T14:22:22Z</time>
      </trkpt>
      <trkpt lat="43.71657" lon="2.3576">
        <ele>568.276367</ele>
        <time>2011-02-23T14:22:25Z</time>
      </trkpt>
      <trkpt lat="43.71642" lon="2.35753">
        <ele>570.679688</ele>
        <time>2011-02-23T14:22:32Z</time>
      </trkpt>
      <trkpt lat="43.71636" lon="2.35794">
        <ele>573.083252</ele>
        <time>2011-02-23T14:22:46Z</time>
      </trkpt>
      <trkpt lat="43.71642" lon="2.35806">
        <ele>575.967041</ele>
        <time>2011-02-23T14:22:54Z</time>
      </trkpt>
      <trkpt lat="43.71658" lon="2.35837">
        <ele>578.851074</ele>
        <time>2011-02-23T14:23:13Z</time>
      </trkpt>
      <trkpt lat="43.71675" lon="2.35862">
        <ele>579.812256</ele>
        <time>2011-02-23T14:23:30Z</time>
      </trkpt>
      <trkpt lat="43.71688" lon="2.35887">
        <ele>583.176758</ele>
        <time>2011-02-23T14:23:47Z</time>
      </trkpt>
      <trkpt lat="43.71692" lon="2.35912">
        <ele>585.580078</ele>
        <time>2011-02-23T14:24:02Z</time>
      </trkpt>
      <trkpt lat="43.71692" lon="2.35942">
        <ele>587.502686</ele>
        <time>2011-02-23T14:24:20Z</time>
      </trkpt>
      <trkpt lat="43.71682" lon="2.35964">
        <ele>590.386963</ele>
        <time>2011-02-23T14:24:33Z</time>
      </trkpt>
      <trkpt lat="43.71677" lon="2.35975">
        <ele>591.348145</ele>
        <time>2011-02-23T14:24:39Z</time>
      </trkpt>
      <trkpt lat="43.71664" lon="2.36009">
        <ele>593.270752</ele>
        <time>2011-02-23T14:24:58Z</time>
      </trkpt>
      <trkpt lat="43.71664" lon="2.36056">
        <ele>595.674072</ele>
        <time>2011-02-23T14:25:18Z</time>
      </trkpt>
      <trkpt lat="43.71664" lon="2.36106">
        <ele>598.557861</ele>
        <time>2011-02-23T14:25:40Z</time>
      </trkpt>
      <trkpt lat="43.71668" lon="2.36154">
        <ele>599.519287</ele>
        <time>2011-02-23T14:26:01Z</time>
      </trkpt>
      <trkpt lat="43.71687" lon="2.36193">
        <ele>602.883789</ele>
        <time>2011-02-23T14:26:19Z</time>
      </trkpt>
      <trkpt lat="43.71708" lon="2.36229">
        <ele>604.806641</ele>
        <time>2011-02-23T14:26:36Z</time>
      </trkpt>
      <trkpt lat="43.71733" lon="2.36266">
        <ele>605.287354</ele>
        <time>2011-02-23T14:26:55Z</time>
      </trkpt>
      <trkpt lat="43.71758" lon="2.36313">
        <ele>607.209961</ele>
        <time>2011-02-23T14:27:17Z</time>
      </trkpt>
      <trkpt lat="43.71774" lon="2.36344">
        <ele>609.613281</ele>
        <time>2011-02-23T14:27:31Z</time>
      </trkpt>
      <trkpt lat="43.71797" lon="2.36389">
        <ele>611.055176</ele>
        <time>2011-02-23T14:27:50Z</time>
      </trkpt>
      <trkpt lat="43.71829" lon="2.36442">
        <ele>609.613281</ele>
        <time>2011-02-23T14:28:11Z</time>
      </trkpt>
      <trkpt lat="43.71849" lon="2.36472">
        <ele>609.132568</ele>
        <time>2011-02-23T14:28:24Z</time>
      </trkpt>
      <trkpt lat="43.71881" lon="2.36526">
        <ele>608.171387</ele>
        <time>2011-02-23T14:28:42Z</time>
      </trkpt>
      <trkpt lat="43.71907" lon="2.36581">
        <ele>607.690674</ele>
        <time>2011-02-23T14:28:59Z</time>
      </trkpt>
      <trkpt lat="43.71923" lon="2.3663">
        <ele>607.209961</ele>
        <time>2011-02-23T14:29:12Z</time>
      </trkpt>
      <trkpt lat="43.7194" lon="2.36678">
        <ele>606.729248</ele>
        <time>2011-02-23T14:29:25Z</time>
      </trkpt>
      <trkpt lat="43.71958" lon="2.36744">
        <ele>608.171387</ele>
        <time>2011-02-23T14:29:44Z</time>
      </trkpt>
      <trkpt lat="43.71968" lon="2.36795">
        <ele>609.132568</ele>
        <time>2011-02-23T14:30:01Z</time>
      </trkpt>
      <trkpt lat="43.71971" lon="2.36907">
        <ele>613.938965</ele>
        <time>2011-02-23T14:30:35Z</time>
      </trkpt>
      <trkpt lat="43.71971" lon="2.36976">
        <ele>617.303711</ele>
        <time>2011-02-23T14:30:55Z</time>
      </trkpt>
      <trkpt lat="43.71968" lon="2.37016">
        <ele>621.14917</ele>
        <time>2011-02-23T14:31:09Z</time>
      </trkpt>
      <trkpt lat="43.7195" lon="2.37078">
        <ele>623.55249</ele>
        <time>2011-02-23T14:31:30Z</time>
      </trkpt>
      <trkpt lat="43.71942" lon="2.3714">
        <ele>623.55249</ele>
        <time>2011-02-23T14:31:50Z</time>
      </trkpt>
      <trkpt lat="43.7192" lon="2.37187">
        <ele>624.032959</ele>
        <time>2011-02-23T14:32:07Z</time>
      </trkpt>
      <trkpt lat="43.71882" lon="2.37202">
        <ele>624.513672</ele>
        <time>2011-02-23T14:32:24Z</time>
      </trkpt>
      <trkpt lat="43.71874" lon="2.37216">
        <ele>626.436279</ele>
        <time>2011-02-23T14:32:30Z</time>
      </trkpt>
      <trkpt lat="43.71863" lon="2.37233">
        <ele>628.358887</ele>
        <time>2011-02-23T14:32:39Z</time>
      </trkpt>
      <trkpt lat="43.71835" lon="2.37272">
        <ele>630.762207</ele>
        <time>2011-02-23T14:32:59Z</time>
      </trkpt>
      <trkpt lat="43.71811" lon="2.37304">
        <ele>634.607422</ele>
        <time>2011-02-23T14:33:18Z</time>
      </trkpt>
      <trkpt lat="43.71777" lon="2.37338">
        <ele>637.491455</ele>
        <time>2011-02-23T14:33:39Z</time>
      </trkpt>
      <trkpt lat="43.71752" lon="2.37364">
        <ele>640.375488</ele>
        <time>2011-02-23T14:33:56Z</time>
      </trkpt>
      <trkpt lat="43.71713" lon="2.37399">
        <ele>642.778809</ele>
        <time>2011-02-23T14:34:18Z</time>
      </trkpt>
      <trkpt lat="43.7168" lon="2.37429">
        <ele>646.143311</ele>
        <time>2011-02-23T14:34:35Z</time>
      </trkpt>
      <trkpt lat="43.7164" lon="2.37458">
        <ele>648.546387</ele>
        <time>2011-02-23T14:34:55Z</time>
      </trkpt>
      <trkpt lat="43.71623" lon="2.37469">
        <ele>649.507813</ele>
        <time>2011-02-23T14:35:04Z</time>
      </trkpt>
      <trkpt lat="43.71581" lon="2.37489">
        <ele>650.469238</ele>
        <time>2011-02-23T14:35:22Z</time>
      </trkpt>
      <trkpt lat="43.7153" lon="2.37526">
        <ele>648.546387</ele>
        <time>2011-02-23T14:35:38Z</time>
      </trkpt>
      <trkpt lat="43.71526" lon="2.37529">
        <ele>647.585205</ele>
        <time>2011-02-23T14:35:39Z</time>
      </trkpt>
      <trkpt lat="43.71477" lon="2.37548">
        <ele>644.220703</ele>
        <time>2011-02-23T14:35:47Z</time>
      </trkpt>
      <trkpt lat="43.71464" lon="2.37553">
        <ele>642.778809</ele>
        <time>2011-02-23T14:35:49Z</time>
      </trkpt>
      <trkpt lat="43.71416" lon="2.37577">
        <ele>638.452881</ele>
        <time>2011-02-23T14:35:56Z</time>
      </trkpt>
      <trkpt lat="43.71367" lon="2.3761">
        <ele>635.568604</ele>
        <time>2011-02-23T14:36:03Z</time>
      </trkpt>
      <trkpt lat="43.71321" lon="2.37653">
        <ele>634.126709</ele>
        <time>2011-02-23T14:36:13Z</time>
      </trkpt>
      <trkpt lat="43.71249" lon="2.3769">
        <ele>633.165283</ele>
        <time>2011-02-23T14:36:32Z</time>
      </trkpt>
      <trkpt lat="43.71184" lon="2.37717">
        <ele>631.24292</ele>
        <time>2011-02-23T14:36:49Z</time>
      </trkpt>
      <trkpt lat="43.71128" lon="2.37745">
        <ele>631.24292</ele>
        <time>2011-02-23T14:37:05Z</time>
      </trkpt>
      <trkpt lat="43.71071" lon="2.37791">
        <ele>631.723389</ele>
        <time>2011-02-23T14:37:29Z</time>
      </trkpt>
      <trkpt lat="43.71024" lon="2.37845">
        <ele>634.126709</ele>
        <time>2011-02-23T14:37:46Z</time>
      </trkpt>
      <trkpt lat="43.70935" lon="2.37912">
        <ele>637.491455</ele>
        <time>2011-02-23T14:38:18Z</time>
      </trkpt>
      <trkpt lat="43.709" lon="2.37945">
        <ele>638.933594</ele>
        <time>2011-02-23T14:38:31Z</time>
      </trkpt>
      <trkpt lat="43.70843" lon="2.38015">
        <ele>637.972168</ele>
        <time>2011-02-23T14:38:54Z</time>
      </trkpt>
      <trkpt lat="43.70831" lon="2.38028">
        <ele>636.530273</ele>
        <time>2011-02-23T14:38:58Z</time>
      </trkpt>
      <trkpt lat="43.70822" lon="2.38034">
        <ele>635.088135</ele>
        <time>2011-02-23T14:39:00Z</time>
      </trkpt>
      <trkpt lat="43.70787" lon="2.38055">
        <ele>631.723389</ele>
        <time>2011-02-23T14:39:06Z</time>
      </trkpt>
      <trkpt lat="43.70781" lon="2.38058">
        <ele>631.723389</ele>
        <time>2011-02-23T14:39:07Z</time>
      </trkpt>
      <trkpt lat="43.70751" lon="2.38078">
        <ele>628.358887</ele>
        <time>2011-02-23T14:39:12Z</time>
      </trkpt>
      <trkpt lat="43.70744" lon="2.38082">
        <ele>628.358887</ele>
        <time>2011-02-23T14:39:13Z</time>
      </trkpt>
      <trkpt lat="43.70702" lon="2.3811">
        <ele>622.110352</ele>
        <time>2011-02-23T14:39:19Z</time>
      </trkpt>
      <trkpt lat="43.70667" lon="2.3813">
        <ele>619.226318</ele>
        <time>2011-02-23T14:39:24Z</time>
      </trkpt>
      <trkpt lat="43.70622" lon="2.38146">
        <ele>615.861816</ele>
        <time>2011-02-23T14:39:30Z</time>
      </trkpt>
      <trkpt lat="43.70579" lon="2.38154">
        <ele>612.977783</ele>
        <time>2011-02-23T14:39:36Z</time>
      </trkpt>
      <trkpt lat="43.7055" lon="2.38153">
        <ele>610.09375</ele>
        <time>2011-02-23T14:39:40Z</time>
      </trkpt>
      <trkpt lat="43.70473" lon="2.38147">
        <ele>606.729248</ele>
        <time>2011-02-23T14:39:51Z</time>
      </trkpt>
      <trkpt lat="43.70426" lon="2.38149">
        <ele>606.248535</ele>
        <time>2011-02-23T14:40:02Z</time>
      </trkpt>
      <trkpt lat="43.70385" lon="2.38157">
        <ele>607.209961</ele>
        <time>2011-02-23T14:40:17Z</time>
      </trkpt>
      <trkpt lat="43.70339" lon="2.38159">
        <ele>605.768066</ele>
        <time>2011-02-23T14:40:32Z</time>
      </trkpt>
      <trkpt lat="43.70281" lon="2.38154">
        <ele>602.403076</ele>
        <time>2011-02-23T14:40:43Z</time>
      </trkpt>
      <trkpt lat="43.70246" lon="2.38142">
        <ele>600.961182</ele>
        <time>2011-02-23T14:40:48Z</time>
      </trkpt>
      <trkpt lat="43.70225" lon="2.38136">
        <ele>600</ele>
        <time>2011-02-23T14:40:51Z</time>
      </trkpt>
      <trkpt lat="43.70149" lon="2.38137">
        <ele>600.961182</ele>
        <time>2011-02-23T14:41:06Z</time>
      </trkpt>
      <trkpt lat="43.70074" lon="2.38155">
        <ele>603.845215</ele>
        <time>2011-02-23T14:41:25Z</time>
      </trkpt>
      <trkpt lat="43.70012" lon="2.38177">
        <ele>605.287354</ele>
        <time>2011-02-23T14:41:43Z</time>
      </trkpt>
      <trkpt lat="43.6994" lon="2.38191">
        <ele>607.209961</ele>
        <time>2011-02-23T14:42:03Z</time>
      </trkpt>
      <trkpt lat="43.69881" lon="2.38185">
        <ele>610.09375</ele>
        <time>2011-02-23T14:42:20Z</time>
      </trkpt>
      <trkpt lat="43.69818" lon="2.3819">
        <ele>612.49707</ele>
        <time>2011-02-23T14:42:39Z</time>
      </trkpt>
      <trkpt lat="43.6976" lon="2.38201">
        <ele>615.381104</ele>
        <time>2011-02-23T14:42:56Z</time>
      </trkpt>
      <trkpt lat="43.69703" lon="2.38219">
        <ele>617.78418</ele>
        <time>2011-02-23T14:43:15Z</time>
      </trkpt>
      <trkpt lat="43.69662" lon="2.38257">
        <ele>618.745605</ele>
        <time>2011-02-23T14:43:33Z</time>
      </trkpt>
      <trkpt lat="43.69579" lon="2.38357">
        <ele>605.768066</ele>
        <time>2011-02-23T14:44:01Z</time>
      </trkpt>
      <trkpt lat="43.69571" lon="2.38384">
        <ele>604.326172</ele>
        <time>2011-02-23T14:44:04Z</time>
      </trkpt>
      <trkpt lat="43.69574" lon="2.384">
        <ele>603.364502</ele>
        <time>2011-02-23T14:44:06Z</time>
      </trkpt>
      <trkpt lat="43.69576" lon="2.3842">
        <ele>601.441895</ele>
        <time>2011-02-23T14:44:09Z</time>
      </trkpt>
      <trkpt lat="43.69568" lon="2.38467">
        <ele>597.59668</ele>
        <time>2011-02-23T14:44:14Z</time>
      </trkpt>
      <trkpt lat="43.69557" lon="2.38504">
        <ele>595.193359</ele>
        <time>2011-02-23T14:44:18Z</time>
      </trkpt>
      <trkpt lat="43.69552" lon="2.38516">
        <ele>594.232178</ele>
        <time>2011-02-23T14:44:20Z</time>
      </trkpt>
      <trkpt lat="43.69537" lon="2.38544">
        <ele>589.425537</ele>
        <time>2011-02-23T14:44:26Z</time>
      </trkpt>
      <trkpt lat="43.6952" lon="2.38564">
        <ele>587.983398</ele>
        <time>2011-02-23T14:44:28Z</time>
      </trkpt>
      <trkpt lat="43.69494" lon="2.38567">
        <ele>587.502686</ele>
        <time>2011-02-23T14:44:30Z</time>
      </trkpt>
      <trkpt lat="43.69466" lon="2.38656">
        <ele>579.331543</ele>
        <time>2011-02-23T14:44:45Z</time>
      </trkpt>
      <trkpt lat="43.69432" lon="2.38694">
        <ele>575.005859</ele>
        <time>2011-02-23T14:44:51Z</time>
      </trkpt>
      <trkpt lat="43.69421" lon="2.38707">
        <ele>572.121826</ele>
        <time>2011-02-23T14:44:53Z</time>
      </trkpt>
      <trkpt lat="43.69392" lon="2.38748">
        <ele>568.75708</ele>
        <time>2011-02-23T14:44:57Z</time>
      </trkpt>
      <trkpt lat="43.69373" lon="2.38772">
        <ele>565.392578</ele>
        <time>2011-02-23T14:45:00Z</time>
      </trkpt>
      <trkpt lat="43.69353" lon="2.38795">
        <ele>562.028076</ele>
        <time>2011-02-23T14:45:03Z</time>
      </trkpt>
      <trkpt lat="43.69342" lon="2.38805">
        <ele>560.585938</ele>
        <time>2011-02-23T14:45:05Z</time>
      </trkpt>
      <trkpt lat="43.69307" lon="2.38842">
        <ele>557.702148</ele>
        <time>2011-02-23T14:45:12Z</time>
      </trkpt>
      <trkpt lat="43.69266" lon="2.38882">
        <ele>554.337402</ele>
        <time>2011-02-23T14:45:22Z</time>
      </trkpt>
      <trkpt lat="43.69262" lon="2.38887">
        <ele>554.337402</ele>
        <time>2011-02-23T14:45:23Z</time>
      </trkpt>
      <trkpt lat="43.69241" lon="2.38905">
        <ele>553.375977</ele>
        <time>2011-02-23T14:45:31Z</time>
      </trkpt>
      <trkpt lat="43.69241" lon="2.38905">
        <ele>553.375977</ele>
        <time>2011-02-23T14:45:34Z</time>
      </trkpt>
      <trkpt lat="43.6926" lon="2.38914">
        <ele>549.530762</ele>
        <time>2011-02-23T14:45:39Z</time>
      </trkpt>
      <trkpt lat="43.69241" lon="2.38905">
        <ele>547.127441</ele>
        <time>2011-02-23T14:45:43Z</time>
      </trkpt>
      <trkpt lat="43.69236" lon="2.38947">
        <ele>544.243652</ele>
        <time>2011-02-23T14:45:48Z</time>
      </trkpt>
      <trkpt lat="43.69218" lon="2.38966">
        <ele>540.398315</ele>
        <time>2011-02-23T14:45:54Z</time>
      </trkpt>
      <trkpt lat="43.69212" lon="2.38979">
        <ele>537.994995</ele>
        <time>2011-02-23T14:45:57Z</time>
      </trkpt>
      <trkpt lat="43.69204" lon="2.39002">
        <ele>534.630371</ele>
        <time>2011-02-23T14:46:01Z</time>
      </trkpt>
      <trkpt lat="43.69197" lon="2.39031">
        <ele>528.862549</ele>
        <time>2011-02-23T14:46:07Z</time>
      </trkpt>
      <trkpt lat="43.69196" lon="2.39037">
        <ele>528.862549</ele>
        <time>2011-02-23T14:46:08Z</time>
      </trkpt>
      <trkpt lat="43.69195" lon="2.39042">
        <ele>528.381836</ele>
        <time>2011-02-23T14:46:09Z</time>
      </trkpt>
      <trkpt lat="43.6919" lon="2.39081">
        <ele>520.691284</ele>
        <time>2011-02-23T14:46:16Z</time>
      </trkpt>
      <trkpt lat="43.6919" lon="2.39121">
        <ele>517.807251</ele>
        <time>2011-02-23T14:46:22Z</time>
      </trkpt>
      <trkpt lat="43.6919" lon="2.39139">
        <ele>514.442627</ele>
        <time>2011-02-23T14:46:25Z</time>
      </trkpt>
      <trkpt lat="43.69191" lon="2.39164">
        <ele>510.116699</ele>
        <time>2011-02-23T14:46:30Z</time>
      </trkpt>
      <trkpt lat="43.69194" lon="2.39183">
        <ele>506.752075</ele>
        <time>2011-02-23T14:46:34Z</time>
      </trkpt>
      <trkpt lat="43.69196" lon="2.39191">
        <ele>505.790894</ele>
        <time>2011-02-23T14:46:36Z</time>
      </trkpt>
      <trkpt lat="43.69205" lon="2.39203">
        <ele>502.426147</ele>
        <time>2011-02-23T14:46:39Z</time>
      </trkpt>
      <trkpt lat="43.69208" lon="2.39206">
        <ele>501.464844</ele>
        <time>2011-02-23T14:46:40Z</time>
      </trkpt>
      <trkpt lat="43.69214" lon="2.39241">
        <ele>497.619629</ele>
        <time>2011-02-23T14:46:44Z</time>
      </trkpt>
      <trkpt lat="43.69214" lon="2.39248">
        <ele>497.138916</ele>
        <time>2011-02-23T14:46:45Z</time>
      </trkpt>
      <trkpt lat="43.69215" lon="2.39286">
        <ele>494.735596</ele>
        <time>2011-02-23T14:46:50Z</time>
      </trkpt>
      <trkpt lat="43.69213" lon="2.39323">
        <ele>491.851685</ele>
        <time>2011-02-23T14:46:56Z</time>
      </trkpt>
      <trkpt lat="43.69209" lon="2.39356">
        <ele>488.00647</ele>
        <time>2011-02-23T14:47:02Z</time>
      </trkpt>
      <trkpt lat="43.69207" lon="2.39374">
        <ele>483.68042</ele>
        <time>2011-02-23T14:47:05Z</time>
      </trkpt>
      <trkpt lat="43.69205" lon="2.39398">
        <ele>480.315918</ele>
        <time>2011-02-23T14:47:10Z</time>
      </trkpt>
      <trkpt lat="43.69196" lon="2.39438">
        <ele>475.028687</ele>
        <time>2011-02-23T14:47:18Z</time>
      </trkpt>
      <trkpt lat="43.69194" lon="2.3945">
        <ele>474.067261</ele>
        <time>2011-02-23T14:47:20Z</time>
      </trkpt>
      <trkpt lat="43.69192" lon="2.3946">
        <ele>470.702637</ele>
        <time>2011-02-23T14:47:22Z</time>
      </trkpt>
      <trkpt lat="43.6919" lon="2.39477">
        <ele>467.818726</ele>
        <time>2011-02-23T14:47:25Z</time>
      </trkpt>
      <trkpt lat="43.69186" lon="2.39501">
        <ele>462.531372</ele>
        <time>2011-02-23T14:47:29Z</time>
      </trkpt>
      <trkpt lat="43.69185" lon="2.39506">
        <ele>462.531372</ele>
        <time>2011-02-23T14:47:30Z</time>
      </trkpt>
      <trkpt lat="43.69172" lon="2.39539">
        <ele>459.16687</ele>
        <time>2011-02-23T14:47:37Z</time>
      </trkpt>
      <trkpt lat="43.69162" lon="2.39556">
        <ele>455.802246</ele>
        <time>2011-02-23T14:47:41Z</time>
      </trkpt>
      <trkpt lat="43.6915" lon="2.39573">
        <ele>452.437622</ele>
        <time>2011-02-23T14:47:45Z</time>
      </trkpt>
      <trkpt lat="43.69137" lon="2.39588">
        <ele>449.553711</ele>
        <time>2011-02-23T14:47:49Z</time>
      </trkpt>
      <trkpt lat="43.69134" lon="2.39591">
        <ele>449.072998</ele>
        <time>2011-02-23T14:47:50Z</time>
      </trkpt>
      <trkpt lat="43.69117" lon="2.39609">
        <ele>445.708374</ele>
        <time>2011-02-23T14:47:56Z</time>
      </trkpt>
      <trkpt lat="43.69016" lon="2.3968">
        <ele>434.172607</ele>
        <time>2011-02-23T14:48:32Z</time>
      </trkpt>
      <trkpt lat="43.68983" lon="2.39741">
        <ele>432.25</ele>
        <time>2011-02-23T14:48:37Z</time>
      </trkpt>
      <trkpt lat="43.68993" lon="2.39747">
        <ele>432.25</ele>
        <time>2011-02-23T14:48:39Z</time>
      </trkpt>
      <trkpt lat="43.68991" lon="2.39748">
        <ele>430.807983</ele>
        <time>2011-02-23T14:48:44Z</time>
      </trkpt>
      <trkpt lat="43.68933" lon="2.39756">
        <ele>426.962769</ele>
        <time>2011-02-23T14:49:00Z</time>
      </trkpt>
      <trkpt lat="43.68918" lon="2.3976">
        <ele>427.443359</ele>
        <time>2011-02-23T14:49:04Z</time>
      </trkpt>
      <trkpt lat="43.68905" lon="2.39765">
        <ele>427.443359</ele>
        <time>2011-02-23T14:49:10Z</time>
      </trkpt>
      <trkpt lat="43.68893" lon="2.39811">
        <ele>426.962769</ele>
        <time>2011-02-23T14:49:17Z</time>
      </trkpt>
      <trkpt lat="43.689" lon="2.39831">
        <ele>422.636719</ele>
        <time>2011-02-23T14:49:21Z</time>
      </trkpt>
      <trkpt lat="43.68915" lon="2.39883">
        <ele>419.272217</ele>
        <time>2011-02-23T14:49:28Z</time>
      </trkpt>
      <trkpt lat="43.68915" lon="2.39919">
        <ele>413.984863</ele>
        <time>2011-02-23T14:49:34Z</time>
      </trkpt>
      <trkpt lat="43.68915" lon="2.3996">
        <ele>408.697632</ele>
        <time>2011-02-23T14:49:41Z</time>
      </trkpt>
      <trkpt lat="43.68915" lon="2.39966">
        <ele>408.697632</ele>
        <time>2011-02-23T14:49:42Z</time>
      </trkpt>
      <trkpt lat="43.68915" lon="2.39982">
        <ele>407.255615</ele>
        <time>2011-02-23T14:49:45Z</time>
      </trkpt>
      <trkpt lat="43.68915" lon="2.40008">
        <ele>403.891113</ele>
        <time>2011-02-23T14:49:51Z</time>
      </trkpt>
      <trkpt lat="43.6893" lon="2.40048">
        <ele>400.526489</ele>
        <time>2011-02-23T14:50:00Z</time>
      </trkpt>
      <trkpt lat="43.68928" lon="2.40051">
        <ele>400.045898</ele>
        <time>2011-02-23T14:50:01Z</time>
      </trkpt>
      <trkpt lat="43.68926" lon="2.40054">
        <ele>400.045898</ele>
        <time>2011-02-23T14:50:02Z</time>
      </trkpt>
      <trkpt lat="43.68931" lon="2.40059">
        <ele>397.161743</ele>
        <time>2011-02-23T14:50:06Z</time>
      </trkpt>
      <trkpt lat="43.68933" lon="2.40061">
        <ele>397.161743</ele>
        <time>2011-02-23T14:50:07Z</time>
      </trkpt>
      <trkpt lat="43.68935" lon="2.40064">
        <ele>397.161743</ele>
        <time>2011-02-23T14:50:09Z</time>
      </trkpt>
      <trkpt lat="43.68934" lon="2.40076">
        <ele>394.758545</ele>
        <time>2011-02-23T14:50:13Z</time>
      </trkpt>
      <trkpt lat="43.68942" lon="2.4008">
        <ele>391.874512</ele>
        <time>2011-02-23T14:50:17Z</time>
      </trkpt>
      <trkpt lat="43.68951" lon="2.40075">
        <ele>391.393799</ele>
        <time>2011-02-23T14:50:20Z</time>
      </trkpt>
      <trkpt lat="43.68959" lon="2.40079">
        <ele>387.067993</ele>
        <time>2011-02-23T14:50:26Z</time>
      </trkpt>
      <trkpt lat="43.68958" lon="2.40086">
        <ele>385.625977</ele>
        <time>2011-02-23T14:50:28Z</time>
      </trkpt>
      <trkpt lat="43.68955" lon="2.401">
        <ele>382.742065</ele>
        <time>2011-02-23T14:50:32Z</time>
      </trkpt>
      <trkpt lat="43.68956" lon="2.4011">
        <ele>379.858032</ele>
        <time>2011-02-23T14:50:35Z</time>
      </trkpt>
      <trkpt lat="43.68953" lon="2.4013">
        <ele>376.974243</ele>
        <time>2011-02-23T14:50:41Z</time>
      </trkpt>
      <trkpt lat="43.68957" lon="2.40134">
        <ele>376.012817</ele>
        <time>2011-02-23T14:50:43Z</time>
      </trkpt>
      <trkpt lat="43.68971" lon="2.40136">
        <ele>372.16748</ele>
        <time>2011-02-23T14:50:50Z</time>
      </trkpt>
      <trkpt lat="43.68975" lon="2.40138">
        <ele>370.725586</ele>
        <time>2011-02-23T14:50:52Z</time>
      </trkpt>
      <trkpt lat="43.6898" lon="2.40155">
        <ele>367.360962</ele>
        <time>2011-02-23T14:51:00Z</time>
      </trkpt>
      <trkpt lat="43.6898" lon="2.40158">
        <ele>366.399536</ele>
        <time>2011-02-23T14:51:02Z</time>
      </trkpt>
      <trkpt lat="43.68982" lon="2.40161">
        <ele>364.957642</ele>
        <time>2011-02-23T14:51:06Z</time>
      </trkpt>
      <trkpt lat="43.68992" lon="2.40158">
        <ele>361.112427</ele>
        <time>2011-02-23T14:51:12Z</time>
      </trkpt>
      <trkpt lat="43.69034" lon="2.40085">
        <ele>351.979858</ele>
        <time>2011-02-23T14:51:33Z</time>
      </trkpt>
      <trkpt lat="43.6905" lon="2.40047">
        <ele>347.653931</ele>
        <time>2011-02-23T14:51:42Z</time>
      </trkpt>
      <trkpt lat="43.69054" lon="2.40047">
        <ele>346.212036</ele>
        <time>2011-02-23T14:51:45Z</time>
      </trkpt>
      <trkpt lat="43.69055" lon="2.40056">
        <ele>342.84729</ele>
        <time>2011-02-23T14:51:49Z</time>
      </trkpt>
      <trkpt lat="43.69055" lon="2.4006">
        <ele>341.885986</ele>
        <time>2011-02-23T14:51:52Z</time>
      </trkpt>
      <trkpt lat="43.6906" lon="2.40073">
        <ele>338.040771</ele>
        <time>2011-02-23T14:52:03Z</time>
      </trkpt>
      <trkpt lat="43.69067" lon="2.40094">
        <ele>331.311523</ele>
        <time>2011-02-23T14:52:21Z</time>
      </trkpt>
      <trkpt lat="43.69068" lon="2.40093">
        <ele>330.830933</ele>
        <time>2011-02-23T14:52:22Z</time>
      </trkpt>
      <trkpt lat="43.6907" lon="2.4009">
        <ele>329.869507</ele>
        <time>2011-02-23T14:52:24Z</time>
      </trkpt>
      <trkpt lat="43.69081" lon="2.40073">
        <ele>326.02417</ele>
        <time>2011-02-23T14:52:30Z</time>
      </trkpt>
      <trkpt lat="43.69082" lon="2.40071">
        <ele>325.062988</ele>
        <time>2011-02-23T14:52:45Z</time>
      </trkpt>
      <trkpt lat="43.69074" lon="2.40125">
        <ele>320.256348</ele>
        <time>2011-02-23T14:53:41Z</time>
      </trkpt>
      <trkpt lat="43.69056" lon="2.40186">
        <ele>315.449829</ele>
        <time>2011-02-23T14:53:50Z</time>
      </trkpt>
      <trkpt lat="43.69046" lon="2.40203">
        <ele>313.527222</ele>
        <time>2011-02-23T14:53:53Z</time>
      </trkpt>
      <trkpt lat="43.69028" lon="2.40234">
        <ele>311.604492</ele>
        <time>2011-02-23T14:53:58Z</time>
      </trkpt>
      <trkpt lat="43.69035" lon="2.40294">
        <ele>310.162476</ele>
        <time>2011-02-23T14:54:05Z</time>
      </trkpt>
      <trkpt lat="43.69019" lon="2.40284">
        <ele>310.643066</ele>
        <time>2011-02-23T14:54:09Z</time>
      </trkpt>
      <trkpt lat="43.68994" lon="2.40334">
        <ele>310.162476</ele>
        <time>2011-02-23T14:54:28Z</time>
      </trkpt>
      <trkpt lat="43.68892" lon="2.40315">
        <ele>312.085205</ele>
        <time>2011-02-23T14:55:04Z</time>
      </trkpt>
      <trkpt lat="43.6887" lon="2.40289">
        <ele>312.085205</ele>
        <time>2011-02-23T14:55:10Z</time>
      </trkpt>
      <trkpt lat="43.68828" lon="2.4034">
        <ele>311.604492</ele>
        <time>2011-02-23T14:55:20Z</time>
      </trkpt>
      <trkpt lat="43.68827" lon="2.40353">
        <ele>311.123779</ele>
        <time>2011-02-23T14:55:22Z</time>
      </trkpt>
      <trkpt lat="43.68818" lon="2.40435">
        <ele>309.201172</ele>
        <time>2011-02-23T14:55:34Z</time>
      </trkpt>
      <trkpt lat="43.68797" lon="2.40489">
        <ele>308.239868</ele>
        <time>2011-02-23T14:55:44Z</time>
      </trkpt>
      <trkpt lat="43.68791" lon="2.40491">
        <ele>308.720459</ele>
        <time>2011-02-23T14:55:46Z</time>
      </trkpt>
      <trkpt lat="43.68784" lon="2.40493">
        <ele>309.201172</ele>
        <time>2011-02-23T14:55:48Z</time>
      </trkpt>
      <trkpt lat="43.68707" lon="2.40457">
        <ele>310.162476</ele>
        <time>2011-02-23T14:56:13Z</time>
      </trkpt>
      <trkpt lat="43.68702" lon="2.40371">
        <ele>311.604492</ele>
        <time>2011-02-23T14:56:29Z</time>
      </trkpt>
      <trkpt lat="43.68664" lon="2.40257">
        <ele>313.046509</ele>
        <time>2011-02-23T14:56:50Z</time>
      </trkpt>
      <trkpt lat="43.68661" lon="2.40232">
        <ele>313.527222</ele>
        <time>2011-02-23T14:56:55Z</time>
      </trkpt>
      <trkpt lat="43.6861" lon="2.40195">
        <ele>314.488403</ele>
        <time>2011-02-23T14:57:08Z</time>
      </trkpt>
      <trkpt lat="43.68563" lon="2.40147">
        <ele>314.488403</ele>
        <time>2011-02-23T14:57:23Z</time>
      </trkpt>
      <trkpt lat="43.68538" lon="2.40125">
        <ele>315.449829</ele>
        <time>2011-02-23T14:57:29Z</time>
      </trkpt>
      <trkpt lat="43.68471" lon="2.40104">
        <ele>316.411011</ele>
        <time>2011-02-23T14:57:47Z</time>
      </trkpt>
      <trkpt lat="43.68453" lon="2.40067">
        <ele>317.853027</ele>
        <time>2011-02-23T14:58:00Z</time>
      </trkpt>
      <trkpt lat="43.68454" lon="2.40076">
        <ele>319.295044</ele>
        <time>2011-02-23T14:58:08Z</time>
      </trkpt>
      <trkpt lat="43.68465" lon="2.401">
        <ele>320.737061</ele>
        <time>2011-02-23T14:58:22Z</time>
      </trkpt>
      <trkpt lat="43.68485" lon="2.40112">
        <ele>323.620972</ele>
        <time>2011-02-23T14:58:39Z</time>
      </trkpt>
      <trkpt lat="43.68503" lon="2.40118">
        <ele>326.504883</ele>
        <time>2011-02-23T14:58:53Z</time>
      </trkpt>
      <trkpt lat="43.6852" lon="2.40122">
        <ele>329.869507</ele>
        <time>2011-02-23T14:59:08Z</time>
      </trkpt>
      <trkpt lat="43.68525" lon="2.40122">
        <ele>332.272827</ele>
        <time>2011-02-23T14:59:14Z</time>
      </trkpt>
      <trkpt lat="43.68535" lon="2.40124">
        <ele>333.714722</ele>
        <time>2011-02-23T14:59:21Z</time>
      </trkpt>
      <trkpt lat="43.68556" lon="2.40139">
        <ele>337.079468</ele>
        <time>2011-02-23T14:59:33Z</time>
      </trkpt>
      <trkpt lat="43.68567" lon="2.40155">
        <ele>338.521484</ele>
        <time>2011-02-23T14:59:37Z</time>
      </trkpt>
      <trkpt lat="43.68567" lon="2.40155">
        <ele>339.002075</ele>
        <time>2011-02-23T14:59:40Z</time>
      </trkpt>
      <trkpt lat="43.68576" lon="2.40181">
        <ele>342.84729</ele>
        <time>2011-02-23T14:59:58Z</time>
      </trkpt>
      <trkpt lat="43.68587" lon="2.40216">
        <ele>346.212036</ele>
        <time>2011-02-23T15:00:13Z</time>
      </trkpt>
      <trkpt lat="43.68598" lon="2.40262">
        <ele>349.095825</ele>
        <time>2011-02-23T15:00:32Z</time>
      </trkpt>
      <trkpt lat="43.68601" lon="2.40294">
        <ele>351.018433</ele>
        <time>2011-02-23T15:00:51Z</time>
      </trkpt>
      <trkpt lat="43.68601" lon="2.40318">
        <ele>354.383179</ele>
        <time>2011-02-23T15:01:02Z</time>
      </trkpt>
      <trkpt lat="43.68556" lon="2.40334">
        <ele>357.26709</ele>
        <time>2011-02-23T15:01:17Z</time>
      </trkpt>
      <trkpt lat="43.68556" lon="2.40334">
        <ele>358.708984</ele>
        <time>2011-02-23T15:01:19Z</time>
      </trkpt>
      <trkpt lat="43.68555" lon="2.40326">
        <ele>359.67041</ele>
        <time>2011-02-23T15:01:24Z</time>
      </trkpt>
      <trkpt lat="43.68555" lon="2.40315">
        <ele>363.515747</ele>
        <time>2011-02-23T15:01:36Z</time>
      </trkpt>
      <trkpt lat="43.68555" lon="2.40315">
        <ele>364.957642</ele>
        <time>2011-02-23T15:01:43Z</time>
      </trkpt>
      <trkpt lat="43.68558" lon="2.40299">
        <ele>365.918945</ele>
        <time>2011-02-23T15:01:46Z</time>
      </trkpt>
      <trkpt lat="43.68546" lon="2.40284">
        <ele>369.283691</ele>
        <time>2011-02-23T15:01:59Z</time>
      </trkpt>
      <trkpt lat="43.68526" lon="2.40267">
        <ele>372.648193</ele>
        <time>2011-02-23T15:02:16Z</time>
      </trkpt>
      <trkpt lat="43.685" lon="2.40258">
        <ele>374.570801</ele>
        <time>2011-02-23T15:02:37Z</time>
      </trkpt>
      <trkpt lat="43.68478" lon="2.40253">
        <ele>377.454834</ele>
        <time>2011-02-23T15:02:55Z</time>
      </trkpt>
      <trkpt lat="43.6846" lon="2.4025">
        <ele>380.338745</ele>
        <time>2011-02-23T15:03:09Z</time>
      </trkpt>
      <trkpt lat="43.68429" lon="2.40235">
        <ele>383.703247</ele>
        <time>2011-02-23T15:03:26Z</time>
      </trkpt>
      <trkpt lat="43.68397" lon="2.40212">
        <ele>384.664795</ele>
        <time>2011-02-23T15:03:45Z</time>
      </trkpt>
      <trkpt lat="43.6838" lon="2.402">
        <ele>386.587402</ele>
        <time>2011-02-23T15:03:57Z</time>
      </trkpt>
      <trkpt lat="43.68372" lon="2.40194">
        <ele>387.067993</ele>
        <time>2011-02-23T15:04:03Z</time>
      </trkpt>
      <trkpt lat="43.68351" lon="2.40181">
        <ele>389.951904</ele>
        <time>2011-02-23T15:04:16Z</time>
      </trkpt>
      <trkpt lat="43.68349" lon="2.40188">
        <ele>390.913208</ele>
        <time>2011-02-23T15:04:20Z</time>
      </trkpt>
      <trkpt lat="43.68349" lon="2.40191">
        <ele>390.913208</ele>
        <time>2011-02-23T15:04:22Z</time>
      </trkpt>
      <trkpt lat="43.68373" lon="2.4022">
        <ele>393.797241</ele>
        <time>2011-02-23T15:04:45Z</time>
      </trkpt>
      <trkpt lat="43.68396" lon="2.40246">
        <ele>397.161743</ele>
        <time>2011-02-23T15:05:03Z</time>
      </trkpt>
      <trkpt lat="43.68421" lon="2.40274">
        <ele>399.084351</ele>
        <time>2011-02-23T15:05:22Z</time>
      </trkpt>
      <trkpt lat="43.68447" lon="2.40305">
        <ele>402.449097</ele>
        <time>2011-02-23T15:05:41Z</time>
      </trkpt>
      <trkpt lat="43.68464" lon="2.40352">
        <ele>404.371704</ele>
        <time>2011-02-23T15:05:59Z</time>
      </trkpt>
      <trkpt lat="43.6847" lon="2.40419">
        <ele>405.333008</ele>
        <time>2011-02-23T15:06:21Z</time>
      </trkpt>
      <trkpt lat="43.68457" lon="2.40497">
        <ele>402.929688</ele>
        <time>2011-02-23T15:06:39Z</time>
      </trkpt>
      <trkpt lat="43.68464" lon="2.40527">
        <ele>402.929688</ele>
        <time>2011-02-23T15:06:49Z</time>
      </trkpt>
      <trkpt lat="43.68519" lon="2.40554">
        <ele>405.333008</ele>
        <time>2011-02-23T15:07:11Z</time>
      </trkpt>
      <trkpt lat="43.68559" lon="2.40578">
        <ele>405.813721</ele>
        <time>2011-02-23T15:07:27Z</time>
      </trkpt>
      <trkpt lat="43.68572" lon="2.40595">
        <ele>408.697632</ele>
        <time>2011-02-23T15:07:37Z</time>
      </trkpt>
      <trkpt lat="43.6858" lon="2.40617">
        <ele>412.062256</ele>
        <time>2011-02-23T15:07:49Z</time>
      </trkpt>
      <trkpt lat="43.68588" lon="2.40641">
        <ele>414.946167</ele>
        <time>2011-02-23T15:08:02Z</time>
      </trkpt>
      <trkpt lat="43.68589" lon="2.40643">
        <ele>415.907471</ele>
        <time>2011-02-23T15:08:03Z</time>
      </trkpt>
      <trkpt lat="43.68584" lon="2.40647">
        <ele>416.868896</ele>
        <time>2011-02-23T15:08:09Z</time>
      </trkpt>
      <trkpt lat="43.68571" lon="2.40628">
        <ele>419.752808</ele>
        <time>2011-02-23T15:08:23Z</time>
      </trkpt>
      <trkpt lat="43.68565" lon="2.40626">
        <ele>420.233398</ele>
        <time>2011-02-23T15:08:27Z</time>
      </trkpt>
      <trkpt lat="43.68567" lon="2.40636">
        <ele>420.714111</ele>
        <time>2011-02-23T15:08:34Z</time>
      </trkpt>
      <trkpt lat="43.68586" lon="2.40667">
        <ele>423.598022</ele>
        <time>2011-02-23T15:08:55Z</time>
      </trkpt>
      <trkpt lat="43.68594" lon="2.40686">
        <ele>425.040161</ele>
        <time>2011-02-23T15:09:07Z</time>
      </trkpt>
      <trkpt lat="43.68599" lon="2.40693">
        <ele>426.001343</ele>
        <time>2011-02-23T15:09:13Z</time>
      </trkpt>
      <trkpt lat="43.68607" lon="2.40717">
        <ele>428.885376</ele>
        <time>2011-02-23T15:09:28Z</time>
      </trkpt>
      <trkpt lat="43.6861" lon="2.40722">
        <ele>429.846558</ele>
        <time>2011-02-23T15:09:32Z</time>
      </trkpt>
      <trkpt lat="43.68624" lon="2.40749">
        <ele>432.730713</ele>
        <time>2011-02-23T15:09:48Z</time>
      </trkpt>
      <trkpt lat="43.68625" lon="2.40751">
        <ele>433.211304</ele>
        <time>2011-02-23T15:09:49Z</time>
      </trkpt>
      <trkpt lat="43.68628" lon="2.40759">
        <ele>434.65332</ele>
        <time>2011-02-23T15:09:54Z</time>
      </trkpt>
      <trkpt lat="43.68645" lon="2.40787">
        <ele>437.537109</ele>
        <time>2011-02-23T15:10:13Z</time>
      </trkpt>
      <trkpt lat="43.68647" lon="2.40789">
        <ele>437.056519</ele>
        <time>2011-02-23T15:10:15Z</time>
      </trkpt>
      <trkpt lat="43.68662" lon="2.4083">
        <ele>439.94043</ele>
        <time>2011-02-23T15:10:36Z</time>
      </trkpt>
      <trkpt lat="43.6867" lon="2.40867">
        <ele>442.343872</ele>
        <time>2011-02-23T15:10:54Z</time>
      </trkpt>
      <trkpt lat="43.68674" lon="2.40883">
        <ele>445.227661</ele>
        <time>2011-02-23T15:11:03Z</time>
      </trkpt>
      <trkpt lat="43.68683" lon="2.40897">
        <ele>448.592407</ele>
        <time>2011-02-23T15:11:17Z</time>
      </trkpt>
      <trkpt lat="43.68689" lon="2.40902">
        <ele>450.034424</ele>
        <time>2011-02-23T15:11:22Z</time>
      </trkpt>
      <trkpt lat="43.68696" lon="2.4091">
        <ele>451.957031</ele>
        <time>2011-02-23T15:11:28Z</time>
      </trkpt>
      <trkpt lat="43.68726" lon="2.4093">
        <ele>454.84082</ele>
        <time>2011-02-23T15:11:50Z</time>
      </trkpt>
      <trkpt lat="43.68759" lon="2.4093">
        <ele>455.802246</ele>
        <time>2011-02-23T15:12:09Z</time>
      </trkpt>
      <trkpt lat="43.68782" lon="2.40927">
        <ele>459.16687</ele>
        <time>2011-02-23T15:12:26Z</time>
      </trkpt>
      <trkpt lat="43.68803" lon="2.40925">
        <ele>462.050781</ele>
        <time>2011-02-23T15:12:41Z</time>
      </trkpt>
      <trkpt lat="43.68815" lon="2.40924">
        <ele>463.492798</ele>
        <time>2011-02-23T15:12:49Z</time>
      </trkpt>
      <trkpt lat="43.68826" lon="2.40922">
        <ele>465.415527</ele>
        <time>2011-02-23T15:12:57Z</time>
      </trkpt>
      <trkpt lat="43.68837" lon="2.40919">
        <ele>468.780029</ele>
        <time>2011-02-23T15:13:05Z</time>
      </trkpt>
      <trkpt lat="43.68839" lon="2.40919">
        <ele>468.780029</ele>
        <time>2011-02-23T15:13:06Z</time>
      </trkpt>
      <trkpt lat="43.68864" lon="2.40913">
        <ele>470.702637</ele>
        <time>2011-02-23T15:13:24Z</time>
      </trkpt>
      <trkpt lat="43.68887" lon="2.40908">
        <ele>474.547974</ele>
        <time>2011-02-23T15:13:41Z</time>
      </trkpt>
      <trkpt lat="43.68908" lon="2.40897">
        <ele>477.912476</ele>
        <time>2011-02-23T15:13:58Z</time>
      </trkpt>
      <trkpt lat="43.6892" lon="2.40886">
        <ele>480.796631</ele>
        <time>2011-02-23T15:14:13Z</time>
      </trkpt>
      <trkpt lat="43.68938" lon="2.40872">
        <ele>483.199829</ele>
        <time>2011-02-23T15:14:28Z</time>
      </trkpt>
      <trkpt lat="43.68959" lon="2.40864">
        <ele>486.564453</ele>
        <time>2011-02-23T15:14:43Z</time>
      </trkpt>
      <trkpt lat="43.68976" lon="2.40859">
        <ele>488.487183</ele>
        <time>2011-02-23T15:14:56Z</time>
      </trkpt>
      <trkpt lat="43.6897" lon="2.40871">
        <ele>489.448364</ele>
        <time>2011-02-23T15:15:04Z</time>
      </trkpt>
      <trkpt lat="43.68942" lon="2.40899">
        <ele>489.929077</ele>
        <time>2011-02-23T15:15:24Z</time>
      </trkpt>
      <trkpt lat="43.68923" lon="2.40929">
        <ele>491.370972</ele>
        <time>2011-02-23T15:15:42Z</time>
      </trkpt>
      <trkpt lat="43.689" lon="2.40953">
        <ele>494.255005</ele>
        <time>2011-02-23T15:15:58Z</time>
      </trkpt>
      <trkpt lat="43.68883" lon="2.40969">
        <ele>497.619629</ele>
        <time>2011-02-23T15:16:11Z</time>
      </trkpt>
      <trkpt lat="43.68861" lon="2.40992">
        <ele>500.50354</ele>
        <time>2011-02-23T15:16:28Z</time>
      </trkpt>
      <trkpt lat="43.68835" lon="2.41018">
        <ele>502.906738</ele>
        <time>2011-02-23T15:16:47Z</time>
      </trkpt>
      <trkpt lat="43.68807" lon="2.4105">
        <ele>505.310181</ele>
        <time>2011-02-23T15:17:08Z</time>
      </trkpt>
      <trkpt lat="43.68793" lon="2.41067">
        <ele>508.674683</ele>
        <time>2011-02-23T15:17:22Z</time>
      </trkpt>
      <trkpt lat="43.68801" lon="2.41069">
        <ele>509.155396</ele>
        <time>2011-02-23T15:17:28Z</time>
      </trkpt>
      <trkpt lat="43.68826" lon="2.41051">
        <ele>511.078003</ele>
        <time>2011-02-23T15:17:47Z</time>
      </trkpt>
      <trkpt lat="43.68848" lon="2.41039">
        <ele>514.442627</ele>
        <time>2011-02-23T15:18:02Z</time>
      </trkpt>
      <trkpt lat="43.68877" lon="2.41033">
        <ele>517.32666</ele>
        <time>2011-02-23T15:18:21Z</time>
      </trkpt>
      <trkpt lat="43.68894" lon="2.41021">
        <ele>520.210571</ele>
        <time>2011-02-23T15:18:34Z</time>
      </trkpt>
      <trkpt lat="43.68918" lon="2.41035">
        <ele>523.094604</ele>
        <time>2011-02-23T15:18:51Z</time>
      </trkpt>
      <trkpt lat="43.68937" lon="2.41044">
        <ele>525.978394</ele>
        <time>2011-02-23T15:19:05Z</time>
      </trkpt>
      <trkpt lat="43.68955" lon="2.41043">
        <ele>529.34314</ele>
        <time>2011-02-23T15:19:17Z</time>
      </trkpt>
      <trkpt lat="43.68971" lon="2.41041">
        <ele>532.707764</ele>
        <time>2011-02-23T15:19:28Z</time>
      </trkpt>
      <trkpt lat="43.68978" lon="2.41039">
        <ele>533.668945</ele>
        <time>2011-02-23T15:19:33Z</time>
      </trkpt>
      <trkpt lat="43.69" lon="2.4104">
        <ele>536.072388</ele>
        <time>2011-02-23T15:19:48Z</time>
      </trkpt>
      <trkpt lat="43.69025" lon="2.41055">
        <ele>537.514282</ele>
        <time>2011-02-23T15:20:05Z</time>
      </trkpt>
      <trkpt lat="43.69054" lon="2.41079">
        <ele>537.994995</ele>
        <time>2011-02-23T15:20:21Z</time>
      </trkpt>
      <trkpt lat="43.69057" lon="2.41081">
        <ele>537.514282</ele>
        <time>2011-02-23T15:20:35Z</time>
      </trkpt>
      <trkpt lat="43.69069" lon="2.4109">
        <ele>538.956299</ele>
        <time>2011-02-23T15:21:03Z</time>
      </trkpt>
      <trkpt lat="43.69104" lon="2.41138">
        <ele>537.514282</ele>
        <time>2011-02-23T15:21:19Z</time>
      </trkpt>
      <trkpt lat="43.69136" lon="2.41173">
        <ele>539.917603</ele>
        <time>2011-02-23T15:21:38Z</time>
      </trkpt>
      <trkpt lat="43.69177" lon="2.41226">
        <ele>537.033691</ele>
        <time>2011-02-23T15:21:52Z</time>
      </trkpt>
      <trkpt lat="43.69203" lon="2.4126">
        <ele>537.994995</ele>
        <time>2011-02-23T15:22:03Z</time>
      </trkpt>
      <trkpt lat="43.69219" lon="2.41283">
        <ele>540.878906</ele>
        <time>2011-02-23T15:22:16Z</time>
      </trkpt>
      <trkpt lat="43.69234" lon="2.41301">
        <ele>544.243652</ele>
        <time>2011-02-23T15:22:28Z</time>
      </trkpt>
      <trkpt lat="43.69252" lon="2.4132">
        <ele>547.608154</ele>
        <time>2011-02-23T15:22:43Z</time>
      </trkpt>
      <trkpt lat="43.69273" lon="2.4132">
        <ele>550.972656</ele>
        <time>2011-02-23T15:22:59Z</time>
      </trkpt>
      <trkpt lat="43.69297" lon="2.41317">
        <ele>553.856689</ele>
        <time>2011-02-23T15:23:16Z</time>
      </trkpt>
      <trkpt lat="43.69325" lon="2.41315">
        <ele>556.26001</ele>
        <time>2011-02-23T15:23:36Z</time>
      </trkpt>
      <trkpt lat="43.69339" lon="2.41316">
        <ele>559.624756</ele>
        <time>2011-02-23T15:23:46Z</time>
      </trkpt>
      <trkpt lat="43.6936" lon="2.4132">
        <ele>562.989258</ele>
        <time>2011-02-23T15:24:00Z</time>
      </trkpt>
      <trkpt lat="43.69386" lon="2.41326">
        <ele>565.873291</ele>
        <time>2011-02-23T15:24:18Z</time>
      </trkpt>
      <trkpt lat="43.69419" lon="2.4134">
        <ele>567.795654</ele>
        <time>2011-02-23T15:24:40Z</time>
      </trkpt>
      <trkpt lat="43.69451" lon="2.41359">
        <ele>570.198975</ele>
        <time>2011-02-23T15:25:00Z</time>
      </trkpt>
      <trkpt lat="43.69479" lon="2.41381">
        <ele>572.121826</ele>
        <time>2011-02-23T15:25:20Z</time>
      </trkpt>
      <trkpt lat="43.69514" lon="2.41421">
        <ele>573.083252</ele>
        <time>2011-02-23T15:25:43Z</time>
      </trkpt>
      <trkpt lat="43.69534" lon="2.41477">
        <ele>574.525146</ele>
        <time>2011-02-23T15:26:00Z</time>
      </trkpt>
      <trkpt lat="43.69537" lon="2.41514">
        <ele>574.044434</ele>
        <time>2011-02-23T15:26:08Z</time>
      </trkpt>
      <trkpt lat="43.69536" lon="2.41584">
        <ele>571.640869</ele>
        <time>2011-02-23T15:26:22Z</time>
      </trkpt>
      <trkpt lat="43.69533" lon="2.41658">
        <ele>568.75708</ele>
        <time>2011-02-23T15:26:33Z</time>
      </trkpt>
      <trkpt lat="43.69523" lon="2.41674">
        <ele>569.237793</ele>
        <time>2011-02-23T15:26:42Z</time>
      </trkpt>
      <trkpt lat="43.6949" lon="2.41684">
        <ele>570.198975</ele>
        <time>2011-02-23T15:27:01Z</time>
      </trkpt>
      <trkpt lat="43.69488" lon="2.41686">
        <ele>569.237793</ele>
        <time>2011-02-23T15:27:08Z</time>
      </trkpt>
      <trkpt lat="43.69486" lon="2.41692">
        <ele>569.718506</ele>
        <time>2011-02-23T15:27:41Z</time>
      </trkpt>
      <trkpt lat="43.69484" lon="2.41704">
        <ele>569.237793</ele>
        <time>2011-02-23T15:28:10Z</time>
      </trkpt>
      <trkpt lat="43.69482" lon="2.41705">
        <ele>567.795654</ele>
        <time>2011-02-23T15:28:29Z</time>
      </trkpt>
      <trkpt lat="43.69476" lon="2.41705">
        <ele>568.276367</ele>
        <time>2011-02-23T15:30:20Z</time>
      </trkpt>
      <trkpt lat="43.69479" lon="2.41704">
        <ele>568.276367</ele>
        <time>2011-02-23T15:30:33Z</time>
      </trkpt>
      <trkpt lat="43.69482" lon="2.41701">
        <ele>569.237793</ele>
        <time>2011-02-23T15:30:54Z</time>
      </trkpt>
      <trkpt lat="43.69478" lon="2.41702">
        <ele>568.75708</ele>
        <time>2011-02-23T15:31:29Z</time>
      </trkpt>
      <trkpt lat="43.69477" lon="2.41699">
        <ele>569.718506</ele>
        <time>2011-02-23T15:31:58Z</time>
      </trkpt>
      <trkpt lat="43.69479" lon="2.41698">
        <ele>568.276367</ele>
        <time>2011-02-23T15:32:12Z</time>
      </trkpt>
      <trkpt lat="43.6948" lon="2.41697">
        <ele>569.237793</ele>
        <time>2011-02-23T15:32:17Z</time>
      </trkpt>
      <trkpt lat="43.69511" lon="2.41686">
        <ele>570.198975</ele>
        <time>2011-02-23T15:32:37Z</time>
      </trkpt>
      <trkpt lat="43.69529" lon="2.41692">
        <ele>568.276367</ele>
        <time>2011-02-23T15:32:44Z</time>
      </trkpt>
      <trkpt lat="43.6955" lon="2.41737">
        <ele>565.873291</ele>
        <time>2011-02-23T15:32:55Z</time>
      </trkpt>
      <trkpt lat="43.69584" lon="2.41807">
        <ele>564.431152</ele>
        <time>2011-02-23T15:33:08Z</time>
      </trkpt>
      <trkpt lat="43.69632" lon="2.41894">
        <ele>562.028076</ele>
        <time>2011-02-23T15:33:26Z</time>
      </trkpt>
      <trkpt lat="43.69662" lon="2.4194">
        <ele>562.989258</ele>
        <time>2011-02-23T15:33:37Z</time>
      </trkpt>
      <trkpt lat="43.69772" lon="2.42024">
        <ele>564.431152</ele>
        <time>2011-02-23T15:34:16Z</time>
      </trkpt>
      <trkpt lat="43.69794" lon="2.42055">
        <ele>562.028076</ele>
        <time>2011-02-23T15:34:24Z</time>
      </trkpt>
      <trkpt lat="43.6981" lon="2.42075">
        <ele>559.144043</ele>
        <time>2011-02-23T15:34:28Z</time>
      </trkpt>
      <trkpt lat="43.69927" lon="2.42104">
        <ele>552.414551</ele>
        <time>2011-02-23T15:34:43Z</time>
      </trkpt>
      <trkpt lat="43.69948" lon="2.42119">
        <ele>549.050049</ele>
        <time>2011-02-23T15:34:46Z</time>
      </trkpt>
      <trkpt lat="43.69958" lon="2.42204">
        <ele>548.088867</ele>
        <time>2011-02-23T15:34:48Z</time>
      </trkpt>
      <trkpt lat="43.69993" lon="2.42221">
        <ele>546.646851</ele>
        <time>2011-02-23T15:34:53Z</time>
      </trkpt>
      <trkpt lat="43.70046" lon="2.4224">
        <ele>548.569336</ele>
        <time>2011-02-23T15:35:05Z</time>
      </trkpt>
      <trkpt lat="43.70087" lon="2.42257">
        <ele>549.530762</ele>
        <time>2011-02-23T15:35:20Z</time>
      </trkpt>
      <trkpt lat="43.70142" lon="2.42275">
        <ele>550.972656</ele>
        <time>2011-02-23T15:35:40Z</time>
      </trkpt>
      <trkpt lat="43.70147" lon="2.42277">
        <ele>552.895264</ele>
        <time>2011-02-23T15:35:42Z</time>
      </trkpt>
      <trkpt lat="43.70209" lon="2.42287">
        <ele>554.817871</ele>
        <time>2011-02-23T15:36:04Z</time>
      </trkpt>
      <trkpt lat="43.70267" lon="2.42281">
        <ele>556.740723</ele>
        <time>2011-02-23T15:36:26Z</time>
      </trkpt>
      <trkpt lat="43.70287" lon="2.42274">
        <ele>559.624756</ele>
        <time>2011-02-23T15:36:37Z</time>
      </trkpt>
      <trkpt lat="43.703" lon="2.42267">
        <ele>562.508545</ele>
        <time>2011-02-23T15:36:45Z</time>
      </trkpt>
      <trkpt lat="43.70318" lon="2.42256">
        <ele>565.873291</ele>
        <time>2011-02-23T15:36:56Z</time>
      </trkpt>
      <trkpt lat="43.70347" lon="2.42239">
        <ele>568.75708</ele>
        <time>2011-02-23T15:37:12Z</time>
      </trkpt>
      <trkpt lat="43.70379" lon="2.42209">
        <ele>569.237793</ele>
        <time>2011-02-23T15:37:29Z</time>
      </trkpt>
      <trkpt lat="43.70422" lon="2.42187">
        <ele>569.237793</ele>
        <time>2011-02-23T15:37:48Z</time>
      </trkpt>
      <trkpt lat="43.70463" lon="2.42178">
        <ele>568.75708</ele>
        <time>2011-02-23T15:38:01Z</time>
      </trkpt>
      <trkpt lat="43.70495" lon="2.42176">
        <ele>568.276367</ele>
        <time>2011-02-23T15:38:08Z</time>
      </trkpt>
      <trkpt lat="43.70567" lon="2.42124">
        <ele>568.75708</ele>
        <time>2011-02-23T15:38:28Z</time>
      </trkpt>
      <trkpt lat="43.70626" lon="2.42055">
        <ele>570.198975</ele>
        <time>2011-02-23T15:38:48Z</time>
      </trkpt>
      <trkpt lat="43.70659" lon="2.42023">
        <ele>566.834473</ele>
        <time>2011-02-23T15:38:58Z</time>
      </trkpt>
      <trkpt lat="43.70748" lon="2.41955">
        <ele>560.105225</ele>
        <time>2011-02-23T15:39:18Z</time>
      </trkpt>
      <trkpt lat="43.70748" lon="2.41955">
        <ele>560.105225</ele>
        <time>2011-02-23T15:39:38Z</time>
      </trkpt>
      <trkpt lat="43.70748" lon="2.41955">
        <ele>560.105225</ele>
        <time>2011-02-23T15:39:40Z</time>
      </trkpt>
      <trkpt lat="43.70762" lon="2.41962">
        <ele>563.469971</ele>
        <time>2011-02-23T15:39:51Z</time>
      </trkpt>
      <trkpt lat="43.70796" lon="2.41961">
        <ele>562.508545</ele>
        <time>2011-02-23T15:40:03Z</time>
      </trkpt>
      <trkpt lat="43.7082" lon="2.4199">
        <ele>561.547363</ele>
        <time>2011-02-23T15:40:14Z</time>
      </trkpt>
      <trkpt lat="43.70861" lon="2.42095">
        <ele>558.182861</ele>
        <time>2011-02-23T15:40:33Z</time>
      </trkpt>
      <trkpt lat="43.70886" lon="2.4219">
        <ele>556.26001</ele>
        <time>2011-02-23T15:40:44Z</time>
      </trkpt>
      <trkpt lat="43.70927" lon="2.42304">
        <ele>552.895264</ele>
        <time>2011-02-23T15:40:58Z</time>
      </trkpt>
      <trkpt lat="43.70942" lon="2.42341">
        <ele>549.050049</ele>
        <time>2011-02-23T15:41:04Z</time>
      </trkpt>
      <trkpt lat="43.70946" lon="2.42345">
        <ele>549.050049</ele>
        <time>2011-02-23T15:41:05Z</time>
      </trkpt>
      <trkpt lat="43.7098" lon="2.42373">
        <ele>547.127441</ele>
        <time>2011-02-23T15:41:11Z</time>
      </trkpt>
      <trkpt lat="43.70999" lon="2.42405">
        <ele>546.16626</ele>
        <time>2011-02-23T15:41:16Z</time>
      </trkpt>
      <trkpt lat="43.71005" lon="2.42445">
        <ele>542.801514</ele>
        <time>2011-02-23T15:41:22Z</time>
      </trkpt>
      <trkpt lat="43.71059" lon="2.42501">
        <ele>543.762817</ele>
        <time>2011-02-23T15:41:39Z</time>
      </trkpt>
      <trkpt lat="43.71078" lon="2.42527">
        <ele>545.685547</ele>
        <time>2011-02-23T15:41:50Z</time>
      </trkpt>
      <trkpt lat="43.71082" lon="2.42518">
        <ele>545.685547</ele>
        <time>2011-02-23T15:41:55Z</time>
      </trkpt>
      <trkpt lat="43.71104" lon="2.42482">
        <ele>542.320923</ele>
        <time>2011-02-23T15:42:11Z</time>
      </trkpt>
      <trkpt lat="43.71115" lon="2.42471">
        <ele>538.956299</ele>
        <time>2011-02-23T15:42:15Z</time>
      </trkpt>
      <trkpt lat="43.71121" lon="2.42465">
        <ele>535.591553</ele>
        <time>2011-02-23T15:42:17Z</time>
      </trkpt>
      <trkpt lat="43.71146" lon="2.42457">
        <ele>531.746338</ele>
        <time>2011-02-23T15:42:21Z</time>
      </trkpt>
      <trkpt lat="43.71169" lon="2.42459">
        <ele>529.82373</ele>
        <time>2011-02-23T15:42:25Z</time>
      </trkpt>
      <trkpt lat="43.71202" lon="2.42443">
        <ele>525.978394</ele>
        <time>2011-02-23T15:42:30Z</time>
      </trkpt>
      <trkpt lat="43.71214" lon="2.42434">
        <ele>525.017212</ele>
        <time>2011-02-23T15:42:32Z</time>
      </trkpt>
      <trkpt lat="43.71233" lon="2.42418">
        <ele>519.729858</ele>
        <time>2011-02-23T15:42:37Z</time>
      </trkpt>
      <trkpt lat="43.71233" lon="2.42418">
        <ele>516.845947</ele>
        <time>2011-02-23T15:42:40Z</time>
      </trkpt>
      <trkpt lat="43.71233" lon="2.42418">
        <ele>513.481445</ele>
        <time>2011-02-23T15:42:42Z</time>
      </trkpt>
      <trkpt lat="43.71233" lon="2.42418">
        <ele>510.59729</ele>
        <time>2011-02-23T15:42:44Z</time>
      </trkpt>
      <trkpt lat="43.71287" lon="2.42321">
        <ele>507.232788</ele>
        <time>2011-02-23T15:42:48Z</time>
      </trkpt>
      <trkpt lat="43.71296" lon="2.423">
        <ele>503.868164</ele>
        <time>2011-02-23T15:42:51Z</time>
      </trkpt>
      <trkpt lat="43.7131" lon="2.42271">
        <ele>496.658325</ele>
        <time>2011-02-23T15:42:56Z</time>
      </trkpt>
      <trkpt lat="43.7132" lon="2.42259">
        <ele>493.293579</ele>
        <time>2011-02-23T15:42:59Z</time>
      </trkpt>
      <trkpt lat="43.71326" lon="2.42253">
        <ele>492.332397</ele>
        <time>2011-02-23T15:43:01Z</time>
      </trkpt>
      <trkpt lat="43.71313" lon="2.42244">
        <ele>489.929077</ele>
        <time>2011-02-23T15:43:06Z</time>
      </trkpt>
      <trkpt lat="43.71304" lon="2.42241">
        <ele>488.487183</ele>
        <time>2011-02-23T15:43:08Z</time>
      </trkpt>
      <trkpt lat="43.71284" lon="2.42236">
        <ele>482.719238</ele>
        <time>2011-02-23T15:43:14Z</time>
      </trkpt>
      <trkpt lat="43.71285" lon="2.42225">
        <ele>478.873901</ele>
        <time>2011-02-23T15:43:19Z</time>
      </trkpt>
      <trkpt lat="43.7129" lon="2.42218">
        <ele>475.509277</ele>
        <time>2011-02-23T15:43:22Z</time>
      </trkpt>
      <trkpt lat="43.71293" lon="2.42216">
        <ele>473.58667</ele>
        <time>2011-02-23T15:43:23Z</time>
      </trkpt>
      <trkpt lat="43.7131" lon="2.42206">
        <ele>469.260742</ele>
        <time>2011-02-23T15:43:28Z</time>
      </trkpt>
      <trkpt lat="43.71321" lon="2.42201">
        <ele>466.376709</ele>
        <time>2011-02-23T15:43:31Z</time>
      </trkpt>
      <trkpt lat="43.71328" lon="2.42195">
        <ele>465.415527</ele>
        <time>2011-02-23T15:43:33Z</time>
      </trkpt>
      <trkpt lat="43.71339" lon="2.4219">
        <ele>462.050781</ele>
        <time>2011-02-23T15:43:36Z</time>
      </trkpt>
      <trkpt lat="43.71348" lon="2.42185">
        <ele>459.647583</ele>
        <time>2011-02-23T15:43:38Z</time>
      </trkpt>
      <trkpt lat="43.71362" lon="2.42176">
        <ele>455.321533</ele>
        <time>2011-02-23T15:43:41Z</time>
      </trkpt>
      <trkpt lat="43.71381" lon="2.42166">
        <ele>450.515015</ele>
        <time>2011-02-23T15:43:45Z</time>
      </trkpt>
      <trkpt lat="43.71386" lon="2.42165">
        <ele>450.034424</ele>
        <time>2011-02-23T15:43:46Z</time>
      </trkpt>
      <trkpt lat="43.71391" lon="2.42163">
        <ele>449.553711</ele>
        <time>2011-02-23T15:43:47Z</time>
      </trkpt>
      <trkpt lat="43.71412" lon="2.42147">
        <ele>444.74707</ele>
        <time>2011-02-23T15:43:52Z</time>
      </trkpt>
      <trkpt lat="43.71418" lon="2.4214">
        <ele>443.785767</ele>
        <time>2011-02-23T15:43:54Z</time>
      </trkpt>
      <trkpt lat="43.71436" lon="2.42125">
        <ele>441.382446</ele>
        <time>2011-02-23T15:44:00Z</time>
      </trkpt>
      <trkpt lat="43.71479" lon="2.42047">
        <ele>438.017822</ele>
        <time>2011-02-23T15:44:11Z</time>
      </trkpt>
      <trkpt lat="43.71537" lon="2.42036">
        <ele>435.133911</ele>
        <time>2011-02-23T15:44:19Z</time>
      </trkpt>
      <trkpt lat="43.71558" lon="2.42041">
        <ele>437.537109</ele>
        <time>2011-02-23T15:44:25Z</time>
      </trkpt>
      <trkpt lat="43.71576" lon="2.42046">
        <ele>438.979126</ele>
        <time>2011-02-23T15:44:31Z</time>
      </trkpt>
      <trkpt lat="43.71575" lon="2.42046">
        <ele>439.94043</ele>
        <time>2011-02-23T15:44:34Z</time>
      </trkpt>
      <trkpt lat="43.71571" lon="2.42044">
        <ele>440.901855</ele>
        <time>2011-02-23T15:44:43Z</time>
      </trkpt>
      <trkpt lat="43.71571" lon="2.42044">
        <ele>443.305054</ele>
        <time>2011-02-23T15:44:59Z</time>
      </trkpt>
      <trkpt lat="43.71571" lon="2.42044">
        <ele>445.227661</ele>
        <time>2011-02-23T15:45:08Z</time>
      </trkpt>
      <trkpt lat="43.71571" lon="2.42044">
        <ele>446.669678</ele>
        <time>2011-02-23T15:45:12Z</time>
      </trkpt>
      <trkpt lat="43.71571" lon="2.42044">
        <ele>449.072998</ele>
        <time>2011-02-23T15:45:32Z</time>
      </trkpt>
      <trkpt lat="43.71617" lon="2.42069">
        <ele>452.437622</ele>
        <time>2011-02-23T15:45:49Z</time>
      </trkpt>
      <trkpt lat="43.71617" lon="2.42069">
        <ele>454.84082</ele>
        <time>2011-02-23T15:46:01Z</time>
      </trkpt>
      <trkpt lat="43.71648" lon="2.42075">
        <ele>456.282959</ele>
        <time>2011-02-23T15:46:21Z</time>
      </trkpt>
      <trkpt lat="43.71648" lon="2.42075">
        <ele>457.724976</ele>
        <time>2011-02-23T15:46:44Z</time>
      </trkpt>
      <trkpt lat="43.71648" lon="2.42075">
        <ele>459.647583</ele>
        <time>2011-02-23T15:47:02Z</time>
      </trkpt>
      <trkpt lat="43.71648" lon="2.42075">
        <ele>464.934814</ele>
        <time>2011-02-23T15:47:31Z</time>
      </trkpt>
      <trkpt lat="43.71648" lon="2.42075">
        <ele>470.702637</ele>
        <time>2011-02-23T15:48:05Z</time>
      </trkpt>
      <trkpt lat="43.71648" lon="2.42075">
        <ele>470.221924</ele>
        <time>2011-02-23T15:48:21Z</time>
      </trkpt>
      <trkpt lat="43.71648" lon="2.42075">
        <ele>470.702637</ele>
        <time>2011-02-23T15:48:59Z</time>
      </trkpt>
      <trkpt lat="43.71614" lon="2.42069">
        <ele>470.221924</ele>
        <time>2011-02-23T15:49:47Z</time>
      </trkpt>
      <trkpt lat="43.71535" lon="2.42035">
        <ele>463.973389</ele>
        <time>2011-02-23T15:50:16Z</time>
      </trkpt>
      <trkpt lat="43.71535" lon="2.42035">
        <ele>463.492798</ele>
        <time>2011-02-23T15:50:31Z</time>
      </trkpt>
      <trkpt lat="43.71515" lon="2.42023">
        <ele>460.608765</ele>
        <time>2011-02-23T15:50:42Z</time>
      </trkpt>
      <trkpt lat="43.71506" lon="2.42025">
        <ele>460.608765</ele>
        <time>2011-02-23T15:50:43Z</time>
      </trkpt>
      <trkpt lat="43.71503" lon="2.42026">
        <ele>459.647583</ele>
        <time>2011-02-23T15:50:44Z</time>
      </trkpt>
      <trkpt lat="43.7149" lon="2.4204">
        <ele>458.686157</ele>
        <time>2011-02-23T15:50:49Z</time>
      </trkpt>
      <trkpt lat="43.71485" lon="2.42044">
        <ele>457.724976</ele>
        <time>2011-02-23T15:50:55Z</time>
      </trkpt>
      <trkpt lat="43.7148" lon="2.42046">
        <ele>457.724976</ele>
        <time>2011-02-23T15:51:00Z</time>
      </trkpt>
      <trkpt lat="43.71459" lon="2.42039">
        <ele>458.686157</ele>
        <time>2011-02-23T15:51:11Z</time>
      </trkpt>
      <trkpt lat="43.7145" lon="2.42034">
        <ele>460.608765</ele>
        <time>2011-02-23T15:51:18Z</time>
      </trkpt>
      <trkpt lat="43.71412" lon="2.42017">
        <ele>462.531372</ele>
        <time>2011-02-23T15:51:40Z</time>
      </trkpt>
      <trkpt lat="43.71381" lon="2.42013">
        <ele>464.454102</ele>
        <time>2011-02-23T15:51:58Z</time>
      </trkpt>
      <trkpt lat="43.71354" lon="2.41974">
        <ele>465.896118</ele>
        <time>2011-02-23T15:52:18Z</time>
      </trkpt>
      <trkpt lat="43.71313" lon="2.41976">
        <ele>467.338135</ele>
        <time>2011-02-23T15:52:37Z</time>
      </trkpt>
      <trkpt lat="43.71292" lon="2.41972">
        <ele>469.260742</ele>
        <time>2011-02-23T15:52:48Z</time>
      </trkpt>
      <trkpt lat="43.71292" lon="2.41972">
        <ele>469.260742</ele>
        <time>2011-02-23T15:52:54Z</time>
      </trkpt>
      <trkpt lat="43.71294" lon="2.41973">
        <ele>467.818726</ele>
        <time>2011-02-23T15:53:08Z</time>
      </trkpt>
      <trkpt lat="43.71294" lon="2.41973">
        <ele>469.260742</ele>
        <time>2011-02-23T15:53:32Z</time>
      </trkpt>
      <trkpt lat="43.71288" lon="2.41928">
        <ele>471.18335</ele>
        <time>2011-02-23T15:53:51Z</time>
      </trkpt>
      <trkpt lat="43.71298" lon="2.4187">
        <ele>474.067261</ele>
        <time>2011-02-23T15:54:10Z</time>
      </trkpt>
      <trkpt lat="43.71311" lon="2.4182">
        <ele>476.470581</ele>
        <time>2011-02-23T15:54:27Z</time>
      </trkpt>
      <trkpt lat="43.7132" lon="2.41756">
        <ele>480.315918</ele>
        <time>2011-02-23T15:54:50Z</time>
      </trkpt>
      <trkpt lat="43.71315" lon="2.41706">
        <ele>479.835083</ele>
        <time>2011-02-23T15:55:05Z</time>
      </trkpt>
      <trkpt lat="43.71332" lon="2.41635">
        <ele>480.796631</ele>
        <time>2011-02-23T15:55:26Z</time>
      </trkpt>
      <trkpt lat="43.71336" lon="2.4162">
        <ele>480.796631</ele>
        <time>2011-02-23T15:55:32Z</time>
      </trkpt>
      <trkpt lat="43.71316" lon="2.41567">
        <ele>483.68042</ele>
        <time>2011-02-23T15:55:50Z</time>
      </trkpt>
      <trkpt lat="43.71287" lon="2.41541">
        <ele>484.161133</ele>
        <time>2011-02-23T15:56:06Z</time>
      </trkpt>
      <trkpt lat="43.71249" lon="2.41526">
        <ele>486.08374</ele>
        <time>2011-02-23T15:56:25Z</time>
      </trkpt>
      <trkpt lat="43.71214" lon="2.41492">
        <ele>488.00647</ele>
        <time>2011-02-23T15:56:46Z</time>
      </trkpt>
      <trkpt lat="43.71205" lon="2.41453">
        <ele>490.40979</ele>
        <time>2011-02-23T15:57:01Z</time>
      </trkpt>
      <trkpt lat="43.71201" lon="2.41439">
        <ele>490.890381</ele>
        <time>2011-02-23T15:57:06Z</time>
      </trkpt>
      <trkpt lat="43.71153" lon="2.41378">
        <ele>493.293579</ele>
        <time>2011-02-23T15:57:31Z</time>
      </trkpt>
      <trkpt lat="43.71117" lon="2.41355">
        <ele>494.735596</ele>
        <time>2011-02-23T15:57:46Z</time>
      </trkpt>
      <trkpt lat="43.71086" lon="2.41333">
        <ele>497.619629</ele>
        <time>2011-02-23T15:58:03Z</time>
      </trkpt>
      <trkpt lat="43.71077" lon="2.41295">
        <ele>500.022949</ele>
        <time>2011-02-23T15:58:17Z</time>
      </trkpt>
      <trkpt lat="43.71094" lon="2.41241">
        <ele>501.945557</ele>
        <time>2011-02-23T15:58:38Z</time>
      </trkpt>
      <trkpt lat="43.71089" lon="2.41206">
        <ele>502.906738</ele>
        <time>2011-02-23T15:58:52Z</time>
      </trkpt>
      <trkpt lat="43.71126" lon="2.41149">
        <ele>506.752075</ele>
        <time>2011-02-23T15:59:22Z</time>
      </trkpt>
      <trkpt lat="43.71162" lon="2.41135">
        <ele>509.636108</ele>
        <time>2011-02-23T15:59:43Z</time>
      </trkpt>
      <trkpt lat="43.71187" lon="2.41137">
        <ele>513.000732</ele>
        <time>2011-02-23T15:59:58Z</time>
      </trkpt>
      <trkpt lat="43.7122" lon="2.41142">
        <ele>515.884644</ele>
        <time>2011-02-23T16:00:16Z</time>
      </trkpt>
      <trkpt lat="43.7126" lon="2.41156">
        <ele>518.287842</ele>
        <time>2011-02-23T16:00:35Z</time>
      </trkpt>
      <trkpt lat="43.71298" lon="2.41172">
        <ele>521.171997</ele>
        <time>2011-02-23T16:00:51Z</time>
      </trkpt>
      <trkpt lat="43.71328" lon="2.41224">
        <ele>522.613892</ele>
        <time>2011-02-23T16:01:11Z</time>
      </trkpt>
      <trkpt lat="43.71349" lon="2.41282">
        <ele>525.497803</ele>
        <time>2011-02-23T16:01:31Z</time>
      </trkpt>
      <trkpt lat="43.71376" lon="2.41351">
        <ele>526.939819</ele>
        <time>2011-02-23T16:01:54Z</time>
      </trkpt>
      <trkpt lat="43.71408" lon="2.41392">
        <ele>527.901001</ele>
        <time>2011-02-23T16:02:11Z</time>
      </trkpt>
      <trkpt lat="43.71452" lon="2.41396">
        <ele>530.304443</ele>
        <time>2011-02-23T16:02:32Z</time>
      </trkpt>
      <trkpt lat="43.71512" lon="2.41398">
        <ele>533.188354</ele>
        <time>2011-02-23T16:02:57Z</time>
      </trkpt>
      <trkpt lat="43.71543" lon="2.41403">
        <ele>536.553101</ele>
        <time>2011-02-23T16:03:12Z</time>
      </trkpt>
      <trkpt lat="43.71585" lon="2.41409">
        <ele>539.917603</ele>
        <time>2011-02-23T16:03:33Z</time>
      </trkpt>
      <trkpt lat="43.71612" lon="2.41405">
        <ele>543.282104</ele>
        <time>2011-02-23T16:03:47Z</time>
      </trkpt>
      <trkpt lat="43.71623" lon="2.41419">
        <ele>544.243652</ele>
        <time>2011-02-23T16:04:04Z</time>
      </trkpt>
      <trkpt lat="43.71574" lon="2.41433">
        <ele>546.16626</ele>
        <time>2011-02-23T16:04:28Z</time>
      </trkpt>
      <trkpt lat="43.71553" lon="2.41404">
        <ele>547.608154</ele>
        <time>2011-02-23T16:04:38Z</time>
      </trkpt>
      <trkpt lat="43.71557" lon="2.41324">
        <ele>550.492188</ele>
        <time>2011-02-23T16:04:58Z</time>
      </trkpt>
      <trkpt lat="43.71537" lon="2.41307">
        <ele>553.856689</ele>
        <time>2011-02-23T16:05:12Z</time>
      </trkpt>
      <trkpt lat="43.71532" lon="2.41299">
        <ele>554.337402</ele>
        <time>2011-02-23T16:05:17Z</time>
      </trkpt>
      <trkpt lat="43.71518" lon="2.4128">
        <ele>555.779297</ele>
        <time>2011-02-23T16:05:30Z</time>
      </trkpt>
      <trkpt lat="43.71513" lon="2.41258">
        <ele>557.221436</ele>
        <time>2011-02-23T16:05:39Z</time>
      </trkpt>
      <trkpt lat="43.71516" lon="2.41193">
        <ele>563.950439</ele>
        <time>2011-02-23T16:06:15Z</time>
      </trkpt>
      <trkpt lat="43.71534" lon="2.41119">
        <ele>566.834473</ele>
        <time>2011-02-23T16:06:31Z</time>
      </trkpt>
      <trkpt lat="43.71553" lon="2.41074">
        <ele>570.198975</ele>
        <time>2011-02-23T16:06:55Z</time>
      </trkpt>
      <trkpt lat="43.7156" lon="2.41085">
        <ele>571.640869</ele>
        <time>2011-02-23T16:07:04Z</time>
      </trkpt>
      <trkpt lat="43.71554" lon="2.41124">
        <ele>575.005859</ele>
        <time>2011-02-23T16:07:22Z</time>
      </trkpt>
      <trkpt lat="43.71554" lon="2.41167">
        <ele>577.889648</ele>
        <time>2011-02-23T16:07:44Z</time>
      </trkpt>
      <trkpt lat="43.71557" lon="2.41189">
        <ele>580.773682</ele>
        <time>2011-02-23T16:07:54Z</time>
      </trkpt>
      <trkpt lat="43.71574" lon="2.41225">
        <ele>584.138184</ele>
        <time>2011-02-23T16:08:13Z</time>
      </trkpt>
      <trkpt lat="43.71598" lon="2.41223">
        <ele>585.099609</ele>
        <time>2011-02-23T16:08:31Z</time>
      </trkpt>
      <trkpt lat="43.7164" lon="2.41245">
        <ele>587.502686</ele>
        <time>2011-02-23T16:08:53Z</time>
      </trkpt>
      <trkpt lat="43.7167" lon="2.4127">
        <ele>589.90625</ele>
        <time>2011-02-23T16:09:14Z</time>
      </trkpt>
      <trkpt lat="43.7168" lon="2.41266">
        <ele>592.790283</ele>
        <time>2011-02-23T16:09:31Z</time>
      </trkpt>
      <trkpt lat="43.71746" lon="2.41257">
        <ele>599.519287</ele>
        <time>2011-02-23T16:10:13Z</time>
      </trkpt>
      <trkpt lat="43.7182" lon="2.41237">
        <ele>602.883789</ele>
        <time>2011-02-23T16:10:37Z</time>
      </trkpt>
      <trkpt lat="43.71863" lon="2.41215">
        <ele>605.768066</ele>
        <time>2011-02-23T16:10:59Z</time>
      </trkpt>
      <trkpt lat="43.71883" lon="2.41206">
        <ele>608.651855</ele>
        <time>2011-02-23T16:11:13Z</time>
      </trkpt>
      <trkpt lat="43.71924" lon="2.41199">
        <ele>612.016602</ele>
        <time>2011-02-23T16:11:41Z</time>
      </trkpt>
      <trkpt lat="43.71956" lon="2.41212">
        <ele>613.458496</ele>
        <time>2011-02-23T16:12:01Z</time>
      </trkpt>
      <trkpt lat="43.71979" lon="2.41224">
        <ele>616.342285</ele>
        <time>2011-02-23T16:12:18Z</time>
      </trkpt>
      <trkpt lat="43.72001" lon="2.41231">
        <ele>619.707031</ele>
        <time>2011-02-23T16:12:33Z</time>
      </trkpt>
      <trkpt lat="43.72024" lon="2.41225">
        <ele>623.071777</ele>
        <time>2011-02-23T16:12:51Z</time>
      </trkpt>
      <trkpt lat="43.72029" lon="2.41219">
        <ele>624.032959</ele>
        <time>2011-02-23T16:12:56Z</time>
      </trkpt>
      <trkpt lat="43.72049" lon="2.4125">
        <ele>624.032959</ele>
        <time>2011-02-23T16:13:13Z</time>
      </trkpt>
      <trkpt lat="43.72074" lon="2.41293">
        <ele>624.513672</ele>
        <time>2011-02-23T16:13:31Z</time>
      </trkpt>
      <trkpt lat="43.72087" lon="2.41303">
        <ele>624.513672</ele>
        <time>2011-02-23T16:13:38Z</time>
      </trkpt>
      <trkpt lat="43.72118" lon="2.41287">
        <ele>625.955566</ele>
        <time>2011-02-23T16:13:53Z</time>
      </trkpt>
      <trkpt lat="43.72155" lon="2.41253">
        <ele>627.878174</ele>
        <time>2011-02-23T16:14:11Z</time>
      </trkpt>
      <trkpt lat="43.72188" lon="2.41211">
        <ele>630.762207</ele>
        <time>2011-02-23T16:14:28Z</time>
      </trkpt>
      <trkpt lat="43.72194" lon="2.41204">
        <ele>632.204102</ele>
        <time>2011-02-23T16:14:31Z</time>
      </trkpt>
      <trkpt lat="43.72225" lon="2.4117">
        <ele>635.568604</ele>
        <time>2011-02-23T16:14:46Z</time>
      </trkpt>
      <trkpt lat="43.72269" lon="2.41133">
        <ele>637.010742</ele>
        <time>2011-02-23T16:15:06Z</time>
      </trkpt>
      <trkpt lat="43.72321" lon="2.4109">
        <ele>639.414063</ele>
        <time>2011-02-23T16:15:26Z</time>
      </trkpt>
      <trkpt lat="43.72339" lon="2.41078">
        <ele>637.491455</ele>
        <time>2011-02-23T16:15:32Z</time>
      </trkpt>
      <trkpt lat="43.72395" lon="2.41046">
        <ele>637.010742</ele>
        <time>2011-02-23T16:15:49Z</time>
      </trkpt>
      <trkpt lat="43.7245" lon="2.40966">
        <ele>635.088135</ele>
        <time>2011-02-23T16:16:08Z</time>
      </trkpt>
      <trkpt lat="43.72495" lon="2.40862">
        <ele>631.723389</ele>
        <time>2011-02-23T16:16:26Z</time>
      </trkpt>
      <trkpt lat="43.72537" lon="2.40782">
        <ele>629.320068</ele>
        <time>2011-02-23T16:16:44Z</time>
      </trkpt>
      <trkpt lat="43.72544" lon="2.40769">
        <ele>628.8396</ele>
        <time>2011-02-23T16:16:54Z</time>
      </trkpt>
      <trkpt lat="43.72553" lon="2.40757">
        <ele>628.8396</ele>
        <time>2011-02-23T16:18:45Z</time>
      </trkpt>
      <trkpt lat="43.72556" lon="2.40702">
        <ele>629.320068</ele>
        <time>2011-02-23T16:19:01Z</time>
      </trkpt>
      <trkpt lat="43.72584" lon="2.4063">
        <ele>631.24292</ele>
        <time>2011-02-23T16:19:22Z</time>
      </trkpt>
      <trkpt lat="43.72608" lon="2.40565">
        <ele>633.645996</ele>
        <time>2011-02-23T16:19:41Z</time>
      </trkpt>
      <trkpt lat="43.72619" lon="2.40499">
        <ele>637.010742</ele>
        <time>2011-02-23T16:19:58Z</time>
      </trkpt>
      <trkpt lat="43.72612" lon="2.40422">
        <ele>639.414063</ele>
        <time>2011-02-23T16:20:17Z</time>
      </trkpt>
      <trkpt lat="43.72596" lon="2.40348">
        <ele>639.894775</ele>
        <time>2011-02-23T16:20:34Z</time>
      </trkpt>
      <trkpt lat="43.7257" lon="2.40219">
        <ele>638.452881</ele>
        <time>2011-02-23T16:20:58Z</time>
      </trkpt>
      <trkpt lat="43.7254" lon="2.40081">
        <ele>637.491455</ele>
        <time>2011-02-23T16:21:19Z</time>
      </trkpt>
      <trkpt lat="43.72534" lon="2.40054">
        <ele>636.049561</ele>
        <time>2011-02-23T16:21:23Z</time>
      </trkpt>
      <trkpt lat="43.7249" lon="2.39964">
        <ele>632.204102</ele>
        <time>2011-02-23T16:21:36Z</time>
      </trkpt>
      <trkpt lat="43.72487" lon="2.39956">
        <ele>632.204102</ele>
        <time>2011-02-23T16:21:37Z</time>
      </trkpt>
      <trkpt lat="43.72465" lon="2.3987">
        <ele>629.800781</ele>
        <time>2011-02-23T16:21:46Z</time>
      </trkpt>
      <trkpt lat="43.72461" lon="2.39807">
        <ele>626.916992</ele>
        <time>2011-02-23T16:21:52Z</time>
      </trkpt>
      <trkpt lat="43.72456" lon="2.3968">
        <ele>624.032959</ele>
        <time>2011-02-23T16:22:04Z</time>
      </trkpt>
      <trkpt lat="43.72449" lon="2.39545">
        <ele>620.668457</ele>
        <time>2011-02-23T16:22:18Z</time>
      </trkpt>
      <trkpt lat="43.72444" lon="2.39458">
        <ele>621.14917</ele>
        <time>2011-02-23T16:22:27Z</time>
      </trkpt>
      <trkpt lat="43.72404" lon="2.39383">
        <ele>618.264893</ele>
        <time>2011-02-23T16:22:36Z</time>
      </trkpt>
      <trkpt lat="43.7239" lon="2.39373">
        <ele>616.822998</ele>
        <time>2011-02-23T16:22:38Z</time>
      </trkpt>
      <trkpt lat="43.72339" lon="2.39335">
        <ele>613.938965</ele>
        <time>2011-02-23T16:22:45Z</time>
      </trkpt>
      <trkpt lat="43.72258" lon="2.39274">
        <ele>610.574463</ele>
        <time>2011-02-23T16:22:55Z</time>
      </trkpt>
      <trkpt lat="43.72189" lon="2.39218">
        <ele>607.209961</ele>
        <time>2011-02-23T16:23:04Z</time>
      </trkpt>
      <trkpt lat="43.72155" lon="2.3918">
        <ele>605.768066</ele>
        <time>2011-02-23T16:23:09Z</time>
      </trkpt>
      <trkpt lat="43.72125" lon="2.39074">
        <ele>606.248535</ele>
        <time>2011-02-23T16:23:20Z</time>
      </trkpt>
      <trkpt lat="43.72122" lon="2.38902">
        <ele>608.171387</ele>
        <time>2011-02-23T16:23:40Z</time>
      </trkpt>
      <trkpt lat="43.72111" lon="2.38801">
        <ele>605.287354</ele>
        <time>2011-02-23T16:23:52Z</time>
      </trkpt>
      <trkpt lat="43.72109" lon="2.38791">
        <ele>605.287354</ele>
        <time>2011-02-23T16:23:53Z</time>
      </trkpt>
      <trkpt lat="43.72098" lon="2.38704">
        <ele>601.441895</ele>
        <time>2011-02-23T16:24:01Z</time>
      </trkpt>
      <trkpt lat="43.72094" lon="2.38682">
        <ele>600.961182</ele>
        <time>2011-02-23T16:24:03Z</time>
      </trkpt>
      <trkpt lat="43.72062" lon="2.38481">
        <ele>599.038574</ele>
        <time>2011-02-23T16:24:23Z</time>
      </trkpt>
      <trkpt lat="43.72051" lon="2.38389">
        <ele>600.480713</ele>
        <time>2011-02-23T16:24:34Z</time>
      </trkpt>
      <trkpt lat="43.72044" lon="2.38239">
        <ele>601.922607</ele>
        <time>2011-02-23T16:24:55Z</time>
      </trkpt>
      <trkpt lat="43.72042" lon="2.38208">
        <ele>601.922607</ele>
        <time>2011-02-23T16:25:00Z</time>
      </trkpt>
      <trkpt lat="43.71995" lon="2.38095">
        <ele>603.845215</ele>
        <time>2011-02-23T16:25:21Z</time>
      </trkpt>
      <trkpt lat="43.71923" lon="2.38031">
        <ele>603.364502</ele>
        <time>2011-02-23T16:25:39Z</time>
      </trkpt>
      <trkpt lat="43.71909" lon="2.38029">
        <ele>602.883789</ele>
        <time>2011-02-23T16:25:42Z</time>
      </trkpt>
      <trkpt lat="43.71857" lon="2.38029">
        <ele>602.403076</ele>
        <time>2011-02-23T16:25:53Z</time>
      </trkpt>
      <trkpt lat="43.71775" lon="2.38028">
        <ele>605.768066</ele>
        <time>2011-02-23T16:26:15Z</time>
      </trkpt>
      <trkpt lat="43.71705" lon="2.38007">
        <ele>609.132568</ele>
        <time>2011-02-23T16:26:36Z</time>
      </trkpt>
      <trkpt lat="43.71659" lon="2.37952">
        <ele>611.055176</ele>
        <time>2011-02-23T16:26:55Z</time>
      </trkpt>
      <trkpt lat="43.71637" lon="2.37898">
        <ele>614.419678</ele>
        <time>2011-02-23T16:27:09Z</time>
      </trkpt>
      <trkpt lat="43.71636" lon="2.37894">
        <ele>614.419678</ele>
        <time>2011-02-23T16:27:10Z</time>
      </trkpt>
      <trkpt lat="43.71616" lon="2.37814">
        <ele>616.342285</ele>
        <time>2011-02-23T16:27:30Z</time>
      </trkpt>
      <trkpt lat="43.71612" lon="2.37756">
        <ele>619.707031</ele>
        <time>2011-02-23T16:27:44Z</time>
      </trkpt>
      <trkpt lat="43.71598" lon="2.37689">
        <ele>620.668457</ele>
        <time>2011-02-23T16:28:01Z</time>
      </trkpt>
      <trkpt lat="43.71547" lon="2.37657">
        <ele>622.591064</ele>
        <time>2011-02-23T16:28:21Z</time>
      </trkpt>
      <trkpt lat="43.71498" lon="2.37633">
        <ele>625.955566</ele>
        <time>2011-02-23T16:28:39Z</time>
      </trkpt>
      <trkpt lat="43.7147" lon="2.37616">
        <ele>627.878174</ele>
        <time>2011-02-23T16:28:49Z</time>
      </trkpt>
      <trkpt lat="43.71442" lon="2.37603">
        <ele>628.358887</ele>
        <time>2011-02-23T16:28:58Z</time>
      </trkpt>
      <trkpt lat="43.71371" lon="2.37631">
        <ele>631.723389</ele>
        <time>2011-02-23T16:29:22Z</time>
      </trkpt>
      <trkpt lat="43.7134" lon="2.37648">
        <ele>631.723389</ele>
        <time>2011-02-23T16:29:32Z</time>
      </trkpt>
      <trkpt lat="43.71352" lon="2.37644">
        <ele>632.204102</ele>
        <time>2011-02-23T16:29:36Z</time>
      </trkpt>
      <trkpt lat="43.71373" lon="2.37606">
        <ele>633.645996</ele>
        <time>2011-02-23T16:29:49Z</time>
      </trkpt>
      <trkpt lat="43.71413" lon="2.3758">
        <ele>636.049561</ele>
        <time>2011-02-23T16:30:05Z</time>
      </trkpt>
      <trkpt lat="43.71448" lon="2.37559">
        <ele>638.452881</ele>
        <time>2011-02-23T16:30:22Z</time>
      </trkpt>
      <trkpt lat="43.71455" lon="2.37556">
        <ele>639.894775</ele>
        <time>2011-02-23T16:30:25Z</time>
      </trkpt>
      <trkpt lat="43.71488" lon="2.37544">
        <ele>643.259277</ele>
        <time>2011-02-23T16:30:40Z</time>
      </trkpt>
      <trkpt lat="43.71526" lon="2.37529">
        <ele>646.143311</ele>
        <time>2011-02-23T16:30:59Z</time>
      </trkpt>
      <trkpt lat="43.71552" lon="2.37509">
        <ele>647.585205</ele>
        <time>2011-02-23T16:31:15Z</time>
      </trkpt>
      <trkpt lat="43.7158" lon="2.37489">
        <ele>647.585205</ele>
        <time>2011-02-23T16:31:29Z</time>
      </trkpt>
      <trkpt lat="43.71624" lon="2.37468">
        <ele>646.624023</ele>
        <time>2011-02-23T16:31:47Z</time>
      </trkpt>
      <trkpt lat="43.71665" lon="2.37441">
        <ele>643.259277</ele>
        <time>2011-02-23T16:31:58Z</time>
      </trkpt>
      <trkpt lat="43.71668" lon="2.37439">
        <ele>643.73999</ele>
        <time>2011-02-23T16:31:59Z</time>
      </trkpt>
      <trkpt lat="43.71715" lon="2.37397">
        <ele>639.894775</ele>
        <time>2011-02-23T16:32:11Z</time>
      </trkpt>
      <trkpt lat="43.71723" lon="2.3739">
        <ele>639.414063</ele>
        <time>2011-02-23T16:32:13Z</time>
      </trkpt>
      <trkpt lat="43.7175" lon="2.37365">
        <ele>637.491455</ele>
        <time>2011-02-23T16:32:19Z</time>
      </trkpt>
      <trkpt lat="43.71787" lon="2.37328">
        <ele>634.126709</ele>
        <time>2011-02-23T16:32:26Z</time>
      </trkpt>
      <trkpt lat="43.71798" lon="2.37317">
        <ele>632.684814</ele>
        <time>2011-02-23T16:32:28Z</time>
      </trkpt>
      <trkpt lat="43.71814" lon="2.373">
        <ele>630.281494</ele>
        <time>2011-02-23T16:32:31Z</time>
      </trkpt>
      <trkpt lat="43.71824" lon="2.37287">
        <ele>629.800781</ele>
        <time>2011-02-23T16:32:33Z</time>
      </trkpt>
      <trkpt lat="43.71843" lon="2.3726">
        <ele>626.916992</ele>
        <time>2011-02-23T16:32:37Z</time>
      </trkpt>
      <trkpt lat="43.71868" lon="2.37226">
        <ele>623.55249</ele>
        <time>2011-02-23T16:32:42Z</time>
      </trkpt>
      <trkpt lat="43.71894" lon="2.37193">
        <ele>623.071777</ele>
        <time>2011-02-23T16:32:49Z</time>
      </trkpt>
      <trkpt lat="43.71902" lon="2.37193">
        <ele>622.110352</ele>
        <time>2011-02-23T16:32:51Z</time>
      </trkpt>
      <trkpt lat="43.71933" lon="2.37172">
        <ele>621.629639</ele>
        <time>2011-02-23T16:32:57Z</time>
      </trkpt>
      <trkpt lat="43.71941" lon="2.37135">
        <ele>620.668457</ele>
        <time>2011-02-23T16:33:10Z</time>
      </trkpt>
      <trkpt lat="43.71941" lon="2.37135">
        <ele>619.226318</ele>
        <time>2011-02-23T16:34:31Z</time>
      </trkpt>
      <trkpt lat="43.71944" lon="2.37101">
        <ele>620.668457</ele>
        <time>2011-02-23T16:34:46Z</time>
      </trkpt>
      <trkpt lat="43.71961" lon="2.3704">
        <ele>618.264893</ele>
        <time>2011-02-23T16:34:58Z</time>
      </trkpt>
      <trkpt lat="43.71972" lon="2.36991">
        <ele>615.381104</ele>
        <time>2011-02-23T16:35:08Z</time>
      </trkpt>
      <trkpt lat="43.71971" lon="2.36973">
        <ele>613.458496</ele>
        <time>2011-02-23T16:35:11Z</time>
      </trkpt>
      <trkpt lat="43.71971" lon="2.36899">
        <ele>609.613281</ele>
        <time>2011-02-23T16:35:20Z</time>
      </trkpt>
      <trkpt lat="43.71971" lon="2.3689">
        <ele>609.613281</ele>
        <time>2011-02-23T16:35:21Z</time>
      </trkpt>
      <trkpt lat="43.7197" lon="2.3681">
        <ele>606.729248</ele>
        <time>2011-02-23T16:35:31Z</time>
      </trkpt>
      <trkpt lat="43.71962" lon="2.36764">
        <ele>604.806641</ele>
        <time>2011-02-23T16:35:37Z</time>
      </trkpt>
      <trkpt lat="43.71961" lon="2.36757">
        <ele>604.326172</ele>
        <time>2011-02-23T16:35:38Z</time>
      </trkpt>
      <trkpt lat="43.71948" lon="2.367">
        <ele>602.403076</ele>
        <time>2011-02-23T16:35:49Z</time>
      </trkpt>
      <trkpt lat="43.71946" lon="2.36695">
        <ele>602.883789</ele>
        <time>2011-02-23T16:35:50Z</time>
      </trkpt>
      <trkpt lat="43.7192" lon="2.36619">
        <ele>601.922607</ele>
        <time>2011-02-23T16:36:06Z</time>
      </trkpt>
      <trkpt lat="43.71899" lon="2.36564">
        <ele>601.922607</ele>
        <time>2011-02-23T16:36:21Z</time>
      </trkpt>
      <trkpt lat="43.71871" lon="2.36507">
        <ele>602.883789</ele>
        <time>2011-02-23T16:36:38Z</time>
      </trkpt>
      <trkpt lat="43.71838" lon="2.36455">
        <ele>603.364502</ele>
        <time>2011-02-23T16:36:56Z</time>
      </trkpt>
      <trkpt lat="43.71847" lon="2.36418">
        <ele>603.364502</ele>
        <time>2011-02-23T16:37:06Z</time>
      </trkpt>
      <trkpt lat="43.71881" lon="2.36372">
        <ele>600.480713</ele>
        <time>2011-02-23T16:37:17Z</time>
      </trkpt>
      <trkpt lat="43.719" lon="2.36346">
        <ele>597.59668</ele>
        <time>2011-02-23T16:37:21Z</time>
      </trkpt>
      <trkpt lat="43.71938" lon="2.36294">
        <ele>597.59668</ele>
        <time>2011-02-23T16:37:32Z</time>
      </trkpt>
      <trkpt lat="43.71975" lon="2.36249">
        <ele>596.154785</ele>
        <time>2011-02-23T16:37:43Z</time>
      </trkpt>
      <trkpt lat="43.71989" lon="2.36235">
        <ele>596.154785</ele>
        <time>2011-02-23T16:37:47Z</time>
      </trkpt>
      <trkpt lat="43.72012" lon="2.36223">
        <ele>595.193359</ele>
        <time>2011-02-23T16:37:53Z</time>
      </trkpt>
      <trkpt lat="43.72047" lon="2.36221">
        <ele>592.790283</ele>
        <time>2011-02-23T16:37:59Z</time>
      </trkpt>
      <trkpt lat="43.72075" lon="2.36198">
        <ele>588.945068</ele>
        <time>2011-02-23T16:38:04Z</time>
      </trkpt>
      <trkpt lat="43.72082" lon="2.36188">
        <ele>587.502686</ele>
        <time>2011-02-23T16:38:06Z</time>
      </trkpt>
      <trkpt lat="43.72092" lon="2.3616">
        <ele>584.618896</ele>
        <time>2011-02-23T16:38:09Z</time>
      </trkpt>
      <trkpt lat="43.72098" lon="2.36144">
        <ele>583.657471</ele>
        <time>2011-02-23T16:38:11Z</time>
      </trkpt>
      <trkpt lat="43.72102" lon="2.3613">
        <ele>582.215576</ele>
        <time>2011-02-23T16:38:13Z</time>
      </trkpt>
      <trkpt lat="43.72102" lon="2.36113">
        <ele>581.734863</ele>
        <time>2011-02-23T16:38:15Z</time>
      </trkpt>
      <trkpt lat="43.72126" lon="2.36079">
        <ele>580.292969</ele>
        <time>2011-02-23T16:38:22Z</time>
      </trkpt>
      <trkpt lat="43.72136" lon="2.36064">
        <ele>581.254395</ele>
        <time>2011-02-23T16:38:25Z</time>
      </trkpt>
      <trkpt lat="43.72181" lon="2.36078">
        <ele>584.138184</ele>
        <time>2011-02-23T16:38:35Z</time>
      </trkpt>
      <trkpt lat="43.72202" lon="2.36036">
        <ele>584.618896</ele>
        <time>2011-02-23T16:38:47Z</time>
      </trkpt>
      <trkpt lat="43.72227" lon="2.35949">
        <ele>581.254395</ele>
        <time>2011-02-23T16:39:05Z</time>
      </trkpt>
      <trkpt lat="43.72235" lon="2.35904">
        <ele>576.928467</ele>
        <time>2011-02-23T16:39:14Z</time>
      </trkpt>
      <trkpt lat="43.72241" lon="2.35897">
        <ele>574.525146</ele>
        <time>2011-02-23T16:39:16Z</time>
      </trkpt>
      <trkpt lat="43.72253" lon="2.35888">
        <ele>573.563965</ele>
        <time>2011-02-23T16:39:19Z</time>
      </trkpt>
      <trkpt lat="43.72282" lon="2.3587">
        <ele>573.083252</ele>
        <time>2011-02-23T16:39:25Z</time>
      </trkpt>
      <trkpt lat="43.72317" lon="2.3578">
        <ele>571.640869</ele>
        <time>2011-02-23T16:39:42Z</time>
      </trkpt>
      <trkpt lat="43.72359" lon="2.3573">
        <ele>574.044434</ele>
        <time>2011-02-23T16:39:55Z</time>
      </trkpt>
      <trkpt lat="43.72373" lon="2.35708">
        <ele>573.563965</ele>
        <time>2011-02-23T16:40:00Z</time>
      </trkpt>
      <trkpt lat="43.7245" lon="2.35632">
        <ele>570.679688</ele>
        <time>2011-02-23T16:40:23Z</time>
      </trkpt>
      <trkpt lat="43.7249" lon="2.35572">
        <ele>569.718506</ele>
        <time>2011-02-23T16:40:41Z</time>
      </trkpt>
      <trkpt lat="43.72511" lon="2.35536">
        <ele>569.237793</ele>
        <time>2011-02-23T16:40:57Z</time>
      </trkpt>
      <trkpt lat="43.72537" lon="2.3549">
        <ele>568.75708</ele>
        <time>2011-02-23T16:41:12Z</time>
      </trkpt>
      <trkpt lat="43.72568" lon="2.35428">
        <ele>568.276367</ele>
        <time>2011-02-23T16:41:30Z</time>
      </trkpt>
      <trkpt lat="43.72609" lon="2.35334">
        <ele>566.35376</ele>
        <time>2011-02-23T16:41:49Z</time>
      </trkpt>
      <trkpt lat="43.72674" lon="2.35214">
        <ele>563.950439</ele>
        <time>2011-02-23T16:42:10Z</time>
      </trkpt>
      <trkpt lat="43.72756" lon="2.3508">
        <ele>560.585938</ele>
        <time>2011-02-23T16:42:34Z</time>
      </trkpt>
      <trkpt lat="43.7279" lon="2.35018">
        <ele>559.624756</ele>
        <time>2011-02-23T16:42:45Z</time>
      </trkpt>
      <trkpt lat="43.7286" lon="2.3488">
        <ele>555.779297</ele>
        <time>2011-02-23T16:43:07Z</time>
      </trkpt>
      <trkpt lat="43.7292" lon="2.34737">
        <ele>553.375977</ele>
        <time>2011-02-23T16:43:29Z</time>
      </trkpt>
      <trkpt lat="43.72943" lon="2.34678">
        <ele>552.414551</ele>
        <time>2011-02-23T16:43:38Z</time>
      </trkpt>
      <trkpt lat="43.72959" lon="2.34636">
        <ele>550.972656</ele>
        <time>2011-02-23T16:43:47Z</time>
      </trkpt>
      <trkpt lat="43.72946" lon="2.34633">
        <ele>550.011475</ele>
        <time>2011-02-23T16:43:52Z</time>
      </trkpt>
      <trkpt lat="43.72899" lon="2.34606">
        <ele>548.088867</ele>
        <time>2011-02-23T16:44:08Z</time>
      </trkpt>
      <trkpt lat="43.7289" lon="2.34602">
        <ele>547.608154</ele>
        <time>2011-02-23T16:44:10Z</time>
      </trkpt>
      <trkpt lat="43.72872" lon="2.34547">
        <ele>543.762817</ele>
        <time>2011-02-23T16:44:19Z</time>
      </trkpt>
      <trkpt lat="43.72875" lon="2.34493">
        <ele>541.359497</ele>
        <time>2011-02-23T16:44:26Z</time>
      </trkpt>
      <trkpt lat="43.72892" lon="2.34434">
        <ele>537.514282</ele>
        <time>2011-02-23T16:44:33Z</time>
      </trkpt>
      <trkpt lat="43.72894" lon="2.34425">
        <ele>537.033691</ele>
        <time>2011-02-23T16:44:34Z</time>
      </trkpt>
      <trkpt lat="43.72893" lon="2.34368">
        <ele>533.668945</ele>
        <time>2011-02-23T16:44:40Z</time>
      </trkpt>
      <trkpt lat="43.72886" lon="2.34351">
        <ele>531.746338</ele>
        <time>2011-02-23T16:44:42Z</time>
      </trkpt>
      <trkpt lat="43.72869" lon="2.3433">
        <ele>530.304443</ele>
        <time>2011-02-23T16:44:45Z</time>
      </trkpt>
      <trkpt lat="43.72857" lon="2.34317">
        <ele>528.862549</ele>
        <time>2011-02-23T16:44:47Z</time>
      </trkpt>
      <trkpt lat="43.7284" lon="2.34269">
        <ele>525.978394</ele>
        <time>2011-02-23T16:44:52Z</time>
      </trkpt>
      <trkpt lat="43.72839" lon="2.34257">
        <ele>525.017212</ele>
        <time>2011-02-23T16:44:53Z</time>
      </trkpt>
      <trkpt lat="43.72837" lon="2.34173">
        <ele>522.133179</ele>
        <time>2011-02-23T16:45:00Z</time>
      </trkpt>
      <trkpt lat="43.72836" lon="2.34123">
        <ele>518.287842</ele>
        <time>2011-02-23T16:45:04Z</time>
      </trkpt>
      <trkpt lat="43.72835" lon="2.34085">
        <ele>515.404053</ele>
        <time>2011-02-23T16:45:07Z</time>
      </trkpt>
      <trkpt lat="43.72835" lon="2.34072">
        <ele>514.92334</ele>
        <time>2011-02-23T16:45:08Z</time>
      </trkpt>
      <trkpt lat="43.72834" lon="2.34044">
        <ele>513.962036</ele>
        <time>2011-02-23T16:45:10Z</time>
      </trkpt>
      <trkpt lat="43.72831" lon="2.33987">
        <ele>510.116699</ele>
        <time>2011-02-23T16:45:14Z</time>
      </trkpt>
      <trkpt lat="43.72833" lon="2.33944">
        <ele>507.232788</ele>
        <time>2011-02-23T16:45:17Z</time>
      </trkpt>
      <trkpt lat="43.72833" lon="2.3393">
        <ele>507.232788</ele>
        <time>2011-02-23T16:45:18Z</time>
      </trkpt>
      <trkpt lat="43.72832" lon="2.3389">
        <ele>506.271484</ele>
        <time>2011-02-23T16:45:21Z</time>
      </trkpt>
      <trkpt lat="43.72798" lon="2.33772">
        <ele>502.906738</ele>
        <time>2011-02-23T16:45:31Z</time>
      </trkpt>
      <trkpt lat="43.72771" lon="2.33629">
        <ele>500.022949</ele>
        <time>2011-02-23T16:45:45Z</time>
      </trkpt>
      <trkpt lat="43.72738" lon="2.3355">
        <ele>497.619629</ele>
        <time>2011-02-23T16:45:55Z</time>
      </trkpt>
      <trkpt lat="43.72723" lon="2.33531">
        <ele>496.658325</ele>
        <time>2011-02-23T16:45:58Z</time>
      </trkpt>
      <trkpt lat="43.72683" lon="2.33512">
        <ele>494.255005</ele>
        <time>2011-02-23T16:46:04Z</time>
      </trkpt>
      <trkpt lat="43.72654" lon="2.335">
        <ele>494.255005</ele>
        <time>2011-02-23T16:46:09Z</time>
      </trkpt>
      <trkpt lat="43.72621" lon="2.33481">
        <ele>496.177734</ele>
        <time>2011-02-23T16:46:21Z</time>
      </trkpt>
      <trkpt lat="43.72609" lon="2.33478">
        <ele>499.061523</ele>
        <time>2011-02-23T16:46:38Z</time>
      </trkpt>
      <trkpt lat="43.72609" lon="2.33478">
        <ele>500.022949</ele>
        <time>2011-02-23T16:46:44Z</time>
      </trkpt>
      <trkpt lat="43.72609" lon="2.33478">
        <ele>501.945557</ele>
        <time>2011-02-23T16:46:52Z</time>
      </trkpt>
      <trkpt lat="43.72574" lon="2.33463">
        <ele>505.310181</ele>
        <time>2011-02-23T16:47:04Z</time>
      </trkpt>
      <trkpt lat="43.72568" lon="2.33459">
        <ele>508.194092</ele>
        <time>2011-02-23T16:47:21Z</time>
      </trkpt>
      <trkpt lat="43.72568" lon="2.33459">
        <ele>509.636108</ele>
        <time>2011-02-23T16:47:34Z</time>
      </trkpt>
      <trkpt lat="43.72527" lon="2.33433">
        <ele>513.481445</ele>
        <time>2011-02-23T16:47:53Z</time>
      </trkpt>
      <trkpt lat="43.72496" lon="2.33414">
        <ele>516.845947</ele>
        <time>2011-02-23T16:48:12Z</time>
      </trkpt>
      <trkpt lat="43.72471" lon="2.33402">
        <ele>519.729858</ele>
        <time>2011-02-23T16:48:31Z</time>
      </trkpt>
      <trkpt lat="43.72443" lon="2.33382">
        <ele>521.652588</ele>
        <time>2011-02-23T16:48:51Z</time>
      </trkpt>
      <trkpt lat="43.7242" lon="2.33348">
        <ele>523.094604</ele>
        <time>2011-02-23T16:49:08Z</time>
      </trkpt>
      <trkpt lat="43.72388" lon="2.3331">
        <ele>525.017212</ele>
        <time>2011-02-23T16:49:25Z</time>
      </trkpt>
      <trkpt lat="43.72352" lon="2.33247">
        <ele>526.459106</ele>
        <time>2011-02-23T16:49:44Z</time>
      </trkpt>
      <trkpt lat="43.72296" lon="2.33173">
        <ele>524.536499</ele>
        <time>2011-02-23T16:50:03Z</time>
      </trkpt>
      <trkpt lat="43.72286" lon="2.33163">
        <ele>523.094604</ele>
        <time>2011-02-23T16:50:05Z</time>
      </trkpt>
      <trkpt lat="43.72275" lon="2.33152">
        <ele>522.133179</ele>
        <time>2011-02-23T16:50:07Z</time>
      </trkpt>
      <trkpt lat="43.72254" lon="2.33131">
        <ele>520.691284</ele>
        <time>2011-02-23T16:50:10Z</time>
      </trkpt>
      <trkpt lat="43.72173" lon="2.33049">
        <ele>517.32666</ele>
        <time>2011-02-23T16:50:21Z</time>
      </trkpt>
      <trkpt lat="43.72167" lon="2.33041">
        <ele>517.807251</ele>
        <time>2011-02-23T16:50:22Z</time>
      </trkpt>
      <trkpt lat="43.72162" lon="2.33035">
        <ele>517.32666</ele>
        <time>2011-02-23T16:50:23Z</time>
      </trkpt>
      <trkpt lat="43.72147" lon="2.32998">
        <ele>518.287842</ele>
        <time>2011-02-23T16:50:27Z</time>
      </trkpt>
      <trkpt lat="43.72144" lon="2.32892">
        <ele>520.691284</ele>
        <time>2011-02-23T16:50:45Z</time>
      </trkpt>
      <trkpt lat="43.7214" lon="2.32842">
        <ele>521.171997</ele>
        <time>2011-02-23T16:50:53Z</time>
      </trkpt>
      <trkpt lat="43.72113" lon="2.32754">
        <ele>522.133179</ele>
        <time>2011-02-23T16:51:09Z</time>
      </trkpt>
      <trkpt lat="43.72086" lon="2.32736">
        <ele>523.094604</ele>
        <time>2011-02-23T16:51:18Z</time>
      </trkpt>
      <trkpt lat="43.72102" lon="2.3269">
        <ele>523.575195</ele>
        <time>2011-02-23T16:51:31Z</time>
      </trkpt>
      <trkpt lat="43.72106" lon="2.32663">
        <ele>525.017212</ele>
        <time>2011-02-23T16:51:45Z</time>
      </trkpt>
      <trkpt lat="43.7207" lon="2.32608">
        <ele>524.055786</ele>
        <time>2011-02-23T16:51:58Z</time>
      </trkpt>
      <trkpt lat="43.72055" lon="2.32601">
        <ele>523.094604</ele>
        <time>2011-02-23T16:52:02Z</time>
      </trkpt>
      <trkpt lat="43.72054" lon="2.32601">
        <ele>522.133179</ele>
        <time>2011-02-23T16:52:16Z</time>
      </trkpt>
      <trkpt lat="43.72044" lon="2.32577">
        <ele>522.133179</ele>
        <time>2011-02-23T16:52:27Z</time>
      </trkpt>
      <trkpt lat="43.72044" lon="2.32577">
        <ele>521.652588</ele>
        <time>2011-02-23T16:53:18Z</time>
      </trkpt>
    </trkseg>
  </trk>
</gpx>